Observation data for Earth on 08/07/2018      Previous  Date       Current Mesonet Observations  Soil Data  Daily Summary Page  Observations in Plain Language
KEA1 070500Z 16008KT 21/13 A3013 RMK A01 T02070129  RH  061%=      5-min Rain = 0
KEA1 070501Z 16008KT 21/13 A3013 RMK A01 T02070129  RH  061%=      5-min Rain = 0
KEA1 070502Z 16008KT 21/13 A3013 RMK A01 T02060129  RH  061%=      5-min Rain = 0
KEA1 070503Z 16008KT 21/13 A3013 RMK A01 T02060128  RH  061%=      5-min Rain = 0
KEA1 070504Z 16008KT 21/13 A3013 RMK A01 T02060129  RH  061%=      5-min Rain = 0
KEA1 070505Z 16008KT 21/13 A3013 RMK A01 T02060129  RH  061%=      5-min Rain = 0
KEA1 070506Z 16008KT 21/13 A3013 RMK A01 T02060128  RH  061%=      5-min Rain = 0
KEA1 070507Z 16008KT 21/13 A3013 RMK A01 T02050128  RH  061%=      5-min Rain = 0
KEA1 070508Z 16008KT 21/13 A3013 RMK A01 T02050129  RH  061%=      5-min Rain = 0
KEA1 070509Z 16007KT 21/13 A3013 RMK A01 T02050129  RH  061%=      5-min Rain = 0
KEA1 070510Z 16007KT 21/13 A3013 RMK A01 T02050129  RH  062%=      5-min Rain = 0
KEA1 070511Z 16007KT 20/13 A3013 RMK A01 T02040128  RH  062%=      5-min Rain = 0
KEA1 070512Z 16008KT 20/13 A3013 RMK A01 T02040129  RH  062%=      5-min Rain = 0
KEA1 070513Z 16008KT 20/13 A3013 RMK A01 T02030128  RH  062%=      5-min Rain = 0
KEA1 070514Z 16008KT 20/13 A3013 RMK A01 T02030128  RH  062%=      5-min Rain = 0
KEA1 070515Z 16008KT 20/13 A3013 RMK A01 T02040128  RH  062%=      5-min Rain = 0
KEA1 070516Z 16008KT 20/13 A3013 RMK A01 T02040128  RH  062%=      5-min Rain = 0
KEA1 070517Z 16008KT 20/13 A3013 RMK A01 T02040128  RH  062%=      5-min Rain = 0
KEA1 070518Z 16008KT 20/13 A3013 RMK A01 T02030128  RH  062%=      5-min Rain = 0
KEA1 070519Z 16008KT 20/13 A3013 RMK A01 T02030128  RH  062%=      5-min Rain = 0
KEA1 070520Z 16008KT 20/13 A3013 RMK A01 T02030128  RH  062%=      5-min Rain = 0
KEA1 070521Z 16008KT 20/13 A3013 RMK A01 T02030128  RH  062%=      5-min Rain = 0
KEA1 070522Z 16008KT 20/13 A3013 RMK A01 T02020128  RH  062%=      5-min Rain = 0
KEA1 070523Z 16008KT 20/13 A3013 RMK A01 T02030128  RH  062%=      5-min Rain = 0
KEA1 070524Z 16008KT 20/13 A3013 RMK A01 T02020128  RH  062%=      5-min Rain = 0
KEA1 070525Z 16008KT 20/13 A3013 RMK A01 T02030128  RH  062%=      5-min Rain = 0
KEA1 070526Z 16008KT 20/13 A3013 RMK A01 T02030128  RH  062%=      5-min Rain = 0
KEA1 070527Z 16008KT 20/13 A3013 RMK A01 T02020128  RH  062%=      5-min Rain = 0
KEA1 070528Z 16008KT 20/13 A3013 RMK A01 T02030128  RH  062%=      5-min Rain = 0
KEA1 070529Z 17007KT 20/13 A3013 RMK A01 T02020128  RH  062%=      5-min Rain = 0
KEA1 070530Z 17007KT 20/13 A3013 RMK A01 T02020128  RH  062%=      5-min Rain = 0
KEA1 070531Z 17007KT 20/13 A3013 RMK A01 T02010128  RH  063%=      5-min Rain = 0
KEA1 070532Z 17007KT 20/13 A3013 RMK A01 T02010128  RH  063%=      5-min Rain = 0
KEA1 070533Z 17007KT 20/13 A3013 RMK A01 T02010128  RH  063%=      5-min Rain = 0
KEA1 070534Z 17007KT 20/13 A3013 RMK A01 T02020128  RH  062%=      5-min Rain = 0
KEA1 070535Z 17007KT 20/13 A3013 RMK A01 T02020128  RH  062%=      5-min Rain = 0
KEA1 070536Z 17007KT 20/13 A3013 RMK A01 T02030128  RH  062%=      5-min Rain = 0
KEA1 070537Z 17007KT 20/13 A3013 RMK A01 T02030128  RH  062%=      5-min Rain = 0
KEA1 070538Z 17007KT 20/13 A3013 RMK A01 T02030128  RH  062%=      5-min Rain = 0
KEA1 070539Z 17008KT 20/13 A3013 RMK A01 T02040128  RH  062%=      5-min Rain = 0
KEA1 070540Z 17008KT 20/13 A3013 RMK A01 T02040128  RH  061%=      5-min Rain = 0
KEA1 070541Z 17008KT 21/13 A3013 RMK A01 T02050128  RH  061%=      5-min Rain = 0
KEA1 070542Z 17009KT 21/13 A3013 RMK A01 T02050128  RH  061%=      5-min Rain = 0
KEA1 070543Z 17009KT 21/13 A3013 RMK A01 T02050128  RH  061%=      5-min Rain = 0
KEA1 070544Z 17009KT 21/13 A3013 RMK A01 T02050129  RH  062%=      5-min Rain = 0
KEA1 070545Z 17008KT 21/13 A3012 RMK A01 T02050129  RH  062%=      5-min Rain = 0
KEA1 070546Z 17008KT 21/13 A3012 RMK A01 T02050129  RH  062%=      5-min Rain = 0
KEA1 070547Z 17009KT 21/13 A3012 RMK A01 T02050129  RH  062%=      5-min Rain = 0
KEA1 070548Z 17008KT 21/13 A3012 RMK A01 T02050129  RH  062%=      5-min Rain = 0
KEA1 070549Z 17009KT 21/13 A3013 RMK A01 T02050129  RH  062%=      5-min Rain = 0
KEA1 070550Z 17008KT 21/13 A3013 RMK A01 T02050129  RH  062%=      5-min Rain = 0
KEA1 070551Z 17009KT 21/13 A3013 RMK A01 T02050129  RH  061%=      5-min Rain = 0
KEA1 070552Z 17008KT 21/13 A3012 RMK A01 T02060129  RH  061%=      5-min Rain = 0
KEA1 070553Z 17009KT 21/13 A3012 RMK A01 T02060128  RH  061%=      5-min Rain = 0
KEA1 070554Z 17008KT 21/13 A3012 RMK A01 T02070129  RH  061%=      5-min Rain = 0
KEA1 070555Z 17009KT 21/13 A3012 RMK A01 T02070128  RH  061%=      5-min Rain = 0
KEA1 070556Z 17008KT 21/13 A3012 RMK A01 T02080128  RH  060%=      5-min Rain = 0
KEA1 070557Z 17008KT 21/13 A3012 RMK A01 T02080128  RH  060%=      5-min Rain = 0
KEA1 070558Z 17008KT 21/13 A3012 RMK A01 T02080128  RH  060%=      5-min Rain = 0
KEA1 070559Z 17009KT 21/13 A3012 RMK A01 T02090128  RH  060%=      5-min Rain = 0
KEA1 070600Z 17009KT 21/13 A3012 RMK A01 T02090128  RH  060%=      5-min Rain = 0
KEA1 070601Z 17009KT 21/13 A3012 RMK A01 T02090128  RH  060%=      5-min Rain = 0
KEA1 070602Z 17009KT 21/13 A3012 RMK A01 T02100129  RH  060%=      5-min Rain = 0
KEA1 070603Z 17010KT 21/13 A3012 RMK A01 T02090128  RH  060%=      5-min Rain = 0
KEA1 070604Z 17009KT 21/13 A3012 RMK A01 T02100128  RH  059%=      5-min Rain = 0
KEA1 070605Z 17009KT 21/13 A3012 RMK A01 T02100128  RH  059%=      5-min Rain = 0
KEA1 070606Z 17009KT 21/13 A3012 RMK A01 T02100128  RH  059%=      5-min Rain = 0
KEA1 070607Z 17010KT 21/13 A3012 RMK A01 T02110128  RH  059%=      5-min Rain = 0
KEA1 070608Z 17010KT 21/13 A3012 RMK A01 T02110128  RH  059%=      5-min Rain = 0
KEA1 070609Z 17010KT 21/13 A3012 RMK A01 T02110128  RH  059%=      5-min Rain = 0
KEA1 070610Z 17010KT 21/13 A3012 RMK A01 T02110128  RH  059%=      5-min Rain = 0
KEA1 070611Z 16009KT 21/13 A3012 RMK A01 T02110128  RH  059%=      5-min Rain = 0
KEA1 070612Z 17010KT 21/13 A3012 RMK A01 T02120128  RH  059%=      5-min Rain = 0
KEA1 070613Z 17010KT 21/13 A3012 RMK A01 T02120128  RH  058%=      5-min Rain = 0
KEA1 070614Z 17010KT 21/13 A3012 RMK A01 T02140128  RH  058%=      5-min Rain = 0
KEA1 070615Z 17010KT 22/13 A3012 RMK A01 T02150128  RH  058%=      5-min Rain = 0
KEA1 070616Z 17010KT 22/13 A3012 RMK A01 T02150127  RH  057%=      5-min Rain = 0
KEA1 070617Z 17009KT 22/13 A3012 RMK A01 T02160128  RH  057%=      5-min Rain = 0
KEA1 070618Z 16009KT 22/13 A3012 RMK A01 T02160127  RH  057%=      5-min Rain = 0
KEA1 070619Z 17008KT 22/13 A3012 RMK A01 T02160128  RH  057%=      5-min Rain = 0
KEA1 070620Z 17009KT 22/13 A3012 RMK A01 T02160128  RH  057%=      5-min Rain = 0
KEA1 070621Z 17008KT 22/13 A3012 RMK A01 T02160127  RH  057%=      5-min Rain = 0
KEA1 070622Z 17009KT 22/13 A3012 RMK A01 T02160127  RH  057%=      5-min Rain = 0
KEA1 070623Z 17008KT 22/13 A3012 RMK A01 T02170127  RH  057%=      5-min Rain = 0
KEA1 070624Z 17009KT 22/13 A3012 RMK A01 T02170127  RH  057%=      5-min Rain = 0
KEA1 070625Z 17008KT 22/13 A3013 RMK A01 T02170127  RH  057%=      5-min Rain = 0
KEA1 070626Z 17008KT 22/13 A3013 RMK A01 T02170127  RH  056%=      5-min Rain = 0
KEA1 070627Z 17008KT 22/13 A3013 RMK A01 T02180127  RH  056%=      5-min Rain = 0
KEA1 070628Z 17009KT 22/13 A3013 RMK A01 T02180127  RH  056%=      5-min Rain = 0
KEA1 070629Z 17008KT 22/13 A3013 RMK A01 T02180127  RH  056%=      5-min Rain = 0
KEA1 070630Z 17008KT 22/13 A3013 RMK A01 T02170127  RH  056%=      5-min Rain = 0
KEA1 070631Z 17008KT 22/13 A3013 RMK A01 T02180128  RH  057%=      5-min Rain = 0
KEA1 070632Z 17008KT 22/13 A3013 RMK A01 T02170127  RH  057%=      5-min Rain = 0
KEA1 070633Z 17008KT 22/13 A3013 RMK A01 T02170127  RH  057%=      5-min Rain = 0
KEA1 070634Z 17008KT 22/13 A3013 RMK A01 T02170127  RH  057%=      5-min Rain = 0
KEA1 070635Z 17009KT 22/13 A3012 RMK A01 T02170127  RH  057%=      5-min Rain = 0
KEA1 070636Z 17008KT 22/13 A3012 RMK A01 T02170127  RH  057%=      5-min Rain = 0
KEA1 070637Z 17008KT 22/13 A3012 RMK A01 T02160127  RH  057%=      5-min Rain = 0
KEA1 070638Z 17008KT 22/13 A3012 RMK A01 T02160127  RH  057%=      5-min Rain = 0
KEA1 070639Z 17008KT 22/13 A3012 RMK A01 T02150128  RH  057%=      5-min Rain = 0
KEA1 070640Z 17008KT 22/13 A3013 RMK A01 T02150127  RH  057%=      5-min Rain = 0
KEA1 070641Z 17008KT 21/13 A3013 RMK A01 T02140127  RH  058%=      5-min Rain = 0
KEA1 070642Z 17008KT 22/13 A3013 RMK A01 T02150128  RH  058%=      5-min Rain = 0
KEA1 070643Z 17008KT 21/13 A3013 RMK A01 T02140128  RH  058%=      5-min Rain = 0
KEA1 070644Z 17008KT 21/13 A3013 RMK A01 T02140128  RH  058%=      5-min Rain = 0
KEA1 070645Z 17007KT 21/13 A3013 RMK A01 T02140128  RH  058%=      5-min Rain = 0
KEA1 070646Z 17008KT 21/13 A3013 RMK A01 T02130128  RH  058%=      5-min Rain = 0
KEA1 070647Z 17007KT 21/13 A3013 RMK A01 T02130128  RH  058%=      5-min Rain = 0
KEA1 070648Z 17007KT 21/13 A3013 RMK A01 T02120127  RH  058%=      5-min Rain = 0
KEA1 070649Z 17007KT 21/13 A3013 RMK A01 T02110127  RH  059%=      5-min Rain = 0
KEA1 070650Z 17008KT 21/13 A3013 RMK A01 T02110128  RH  059%=      5-min Rain = 0
KEA1 070651Z 17007KT 21/13 A3013 RMK A01 T02100128  RH  059%=      5-min Rain = 0
KEA1 070652Z 17008KT 21/13 A3013 RMK A01 T02100128  RH  059%=      5-min Rain = 0
KEA1 070653Z 17007KT 21/13 A3013 RMK A01 T02090128  RH  060%=      5-min Rain = 0
KEA1 070654Z 17008KT 21/13 A3013 RMK A01 T02080128  RH  060%=      5-min Rain = 0
KEA1 070655Z 17008KT 21/13 A3013 RMK A01 T02070128  RH  060%=      5-min Rain = 0
KEA1 070656Z 17008KT 21/13 A3013 RMK A01 T02060128  RH  061%=      5-min Rain = 0
KEA1 070657Z 16008KT 21/13 A3012 RMK A01 T02050128  RH  061%=      5-min Rain = 0
KEA1 070658Z 17008KT 20/13 A3012 RMK A01 T02040128  RH  062%=      5-min Rain = 0
KEA1 070659Z 17008KT 20/13 A3012 RMK A01 T02030128  RH  062%=      5-min Rain = 0
KEA1 070700Z 17008KT 20/13 A3012 RMK A01 T02030127  RH  062%=      5-min Rain = 0
KEA1 070701Z 17008KT 20/13 A3012 RMK A01 T02040128  RH  062%=      5-min Rain = 0
KEA1 070702Z 17008KT 20/13 A3012 RMK A01 T02030128  RH  062%=      5-min Rain = 0
KEA1 070703Z 17008KT 20/13 A3012 RMK A01 T02030127  RH  062%=      5-min Rain = 0
KEA1 070704Z 17008KT 20/13 A3012 RMK A01 T02030128  RH  062%=      5-min Rain = 0
KEA1 070705Z 17008KT 20/13 A3012 RMK A01 T02030128  RH  062%=      5-min Rain = 0
KEA1 070706Z 17008KT 20/13 A3012 RMK A01 T02030128  RH  062%=      5-min Rain = 0
KEA1 070707Z 16008KT 20/13 A3012 RMK A01 T02030128  RH  062%=      5-min Rain = 0
KEA1 070708Z 16008KT 20/13 A3012 RMK A01 T02020128  RH  062%=      5-min Rain = 0
KEA1 070709Z 16008KT 20/13 A3012 RMK A01 T02020128  RH  062%=      5-min Rain = 0
KEA1 070710Z 17008KT 20/13 A3012 RMK A01 T02010128  RH  063%=      5-min Rain = 0
KEA1 070711Z 17008KT 20/13 A3012 RMK A01 T02010128  RH  063%=      5-min Rain = 0
KEA1 070712Z 17008KT 20/13 A3012 RMK A01 T02010128  RH  063%=      5-min Rain = 0
KEA1 070713Z 17008KT 20/13 A3012 RMK A01 T02010128  RH  063%=      5-min Rain = 0
KEA1 070714Z 17008KT 20/13 A3012 RMK A01 T02000128  RH  063%=      5-min Rain = 0
KEA1 070715Z 17008KT 20/13 A3012 RMK A01 T02000128  RH  063%=      5-min Rain = 0
KEA1 070716Z 17008KT 20/13 A3012 RMK A01 T01990128  RH  063%=      5-min Rain = 0
KEA1 070717Z 17008KT 20/13 A3012 RMK A01 T01990128  RH  063%=      5-min Rain = 0
KEA1 070718Z 17008KT 20/13 A3012 RMK A01 T01990128  RH  064%=      5-min Rain = 0
KEA1 070719Z 17008KT 20/13 A3012 RMK A01 T01990128  RH  064%=      5-min Rain = 0
KEA1 070720Z 17008KT 20/13 A3012 RMK A01 T01990128  RH  064%=      5-min Rain = 0
KEA1 070721Z 17007KT 20/13 A3012 RMK A01 T01990128  RH  064%=      5-min Rain = 0
KEA1 070722Z 17007KT 20/13 A3012 RMK A01 T01990128  RH  064%=      5-min Rain = 0
KEA1 070723Z 17007KT 20/13 A3012 RMK A01 T01990128  RH  064%=      5-min Rain = 0
KEA1 070724Z 17007KT 20/13 A3012 RMK A01 T01990128  RH  064%=      5-min Rain = 0
KEA1 070725Z 17007KT 20/13 A3012 RMK A01 T01990128  RH  064%=      5-min Rain = 0
KEA1 070726Z 17007KT 20/13 A3012 RMK A01 T01980128  RH  064%=      5-min Rain = 0
KEA1 070727Z 17007KT 20/13 A3012 RMK A01 T01980128  RH  064%=      5-min Rain = 0
KEA1 070728Z 16006KT 20/13 A3012 RMK A01 T01980128  RH  064%=      5-min Rain = 0
KEA1 070729Z 17006KT 20/13 A3012 RMK A01 T01980128  RH  064%=      5-min Rain = 0
KEA1 070730Z 16007KT 20/13 A3012 RMK A01 T01980128  RH  064%=      5-min Rain = 0
KEA1 070731Z 17007KT 20/13 A3012 RMK A01 T01980129  RH  064%=      5-min Rain = 0
KEA1 070732Z 17007KT 20/13 A3012 RMK A01 T01970128  RH  064%=      5-min Rain = 0
KEA1 070733Z 17006KT 20/13 A3012 RMK A01 T01970128  RH  064%=      5-min Rain = 0
KEA1 070734Z 17006KT 20/13 A3012 RMK A01 T01970128  RH  064%=      5-min Rain = 0
KEA1 070735Z 17007KT 20/13 A3012 RMK A01 T01980128  RH  064%=      5-min Rain = 0
KEA1 070736Z 17007KT 20/13 A3012 RMK A01 T01970128  RH  064%=      5-min Rain = 0
KEA1 070737Z 17007KT 20/13 A3012 RMK A01 T01970128  RH  064%=      5-min Rain = 0
KEA1 070738Z 17007KT 20/13 A3012 RMK A01 T01980128  RH  064%=      5-min Rain = 0
KEA1 070739Z 17007KT 20/13 A3012 RMK A01 T01980128  RH  064%=      5-min Rain = 0
KEA1 070740Z 17008KT 20/13 A3012 RMK A01 T01970128  RH  064%=      5-min Rain = 0
KEA1 070741Z 17008KT 20/13 A3012 RMK A01 T01970128  RH  064%=      5-min Rain = 0
KEA1 070742Z 17008KT 20/13 A3012 RMK A01 T01970128  RH  064%=      5-min Rain = 0
KEA1 070743Z 17008KT 20/13 A3012 RMK A01 T01970128  RH  064%=      5-min Rain = 0
KEA1 070744Z 17008KT 20/13 A3012 RMK A01 T01970128  RH  064%=      5-min Rain = 0
KEA1 070745Z 17008KT 20/13 A3012 RMK A01 T01970129  RH  064%=      5-min Rain = 0
KEA1 070746Z 17009KT 20/13 A3012 RMK A01 T01980129  RH  064%=      5-min Rain = 0
KEA1 070747Z 17008KT 20/13 A3012 RMK A01 T01980129  RH  064%=      5-min Rain = 0
KEA1 070748Z 17008KT 20/13 A3012 RMK A01 T01980129  RH  064%=      5-min Rain = 0
KEA1 070749Z 17008KT 20/13 A3012 RMK A01 T01980129  RH  064%=      5-min Rain = 0
KEA1 070750Z 17008KT 20/13 A3012 RMK A01 T01990129  RH  064%=      5-min Rain = 0
KEA1 070751Z 17008KT 20/13 A3012 RMK A01 T02000129  RH  064%=      5-min Rain = 0
KEA1 070752Z 17008KT 20/13 A3012 RMK A01 T02010129  RH  063%=      5-min Rain = 0
KEA1 070753Z 17008KT 20/13 A3012 RMK A01 T02010129  RH  063%=      5-min Rain = 0
KEA1 070754Z 17008KT 20/13 A3012 RMK A01 T02010129  RH  063%=      5-min Rain = 0
KEA1 070755Z 17008KT 20/13 A3012 RMK A01 T02020130  RH  063%=      5-min Rain = 0
KEA1 070756Z 17008KT 20/13 A3012 RMK A01 T02020130  RH  063%=      5-min Rain = 0
KEA1 070757Z 17008KT 20/13 A3012 RMK A01 T02030130  RH  063%=      5-min Rain = 0
KEA1 070758Z 17008KT 21/13 A3012 RMK A01 T02050130  RH  062%=      5-min Rain = 0
KEA1 070759Z 17009KT 21/13 A3012 RMK A01 T02060130  RH  062%=      5-min Rain = 0
KEA1 070800Z 17008KT 21/13 A3012 RMK A01 T02060130  RH  061%=      5-min Rain = 0
KEA1 070801Z 17008KT 21/13 A3011 RMK A01 T02070130  RH  061%=      5-min Rain = 0
KEA1 070802Z 17008KT 21/13 A3011 RMK A01 T02070130  RH  061%=      5-min Rain = 0
KEA1 070803Z 16008KT 21/13 A3011 RMK A01 T02080130  RH  061%=      5-min Rain = 0
KEA1 070804Z 16008KT 21/13 A3011 RMK A01 T02070130  RH  061%=      5-min Rain = 0
KEA1 070805Z 16008KT 21/13 A3011 RMK A01 T02070130  RH  061%=      5-min Rain = 0
KEA1 070806Z 13006KT 21/13 A3011 RMK A01 T02060130  RH  062%=      5-min Rain = 0
KEA1 070807Z 13007KT 20/13 A3011 RMK A01 T02020129  RH  063%=      5-min Rain = 0
KEA1 070808Z 14007KT 20/13 A3011 RMK A01 T01980128  RH  064%=      5-min Rain = 0
KEA1 070809Z 14007KT 20/13 A3011 RMK A01 T01960128  RH  065%=      5-min Rain = 0
KEA1 070810Z 15007KT 19/13 A3011 RMK A01 T01940128  RH  066%=      5-min Rain = 0
KEA1 070811Z 15007KT 19/13 A3011 RMK A01 T01920128  RH  066%=      5-min Rain = 0
KEA1 070812Z 15007KT 19/13 A3011 RMK A01 T01920128  RH  066%=      5-min Rain = 0
KEA1 070813Z 16007KT 19/13 A3011 RMK A01 T01910128  RH  067%=      5-min Rain = 0
KEA1 070814Z 16008KT 19/13 A3011 RMK A01 T01910128  RH  067%=      5-min Rain = 0
KEA1 070815Z 16007KT 19/13 A3011 RMK A01 T01910128  RH  067%=      5-min Rain = 0
KEA1 070816Z 17007KT 19/13 A3011 RMK A01 T01900128  RH  067%=      5-min Rain = 0
KEA1 070817Z 17007KT 19/13 A3011 RMK A01 T01900128  RH  067%=      5-min Rain = 0
KEA1 070818Z 17007KT 19/13 A3011 RMK A01 T01900128  RH  067%=      5-min Rain = 0
KEA1 070819Z 17006KT 19/13 A3011 RMK A01 T01900128  RH  067%=      5-min Rain = 0
KEA1 070820Z 18006KT 19/13 A3011 RMK A01 T01900128  RH  067%=      5-min Rain = 0
KEA1 070821Z 18006KT 19/13 A3011 RMK A01 T01900128  RH  067%=      5-min Rain = 0
KEA1 070822Z 18006KT 19/13 A3011 RMK A01 T01890128  RH  067%=      5-min Rain = 0
KEA1 070823Z 18006KT 19/13 A3011 RMK A01 T01890128  RH  067%=      5-min Rain = 0
KEA1 070824Z 18006KT 19/13 A3011 RMK A01 T01890127  RH  067%=      5-min Rain = 0
KEA1 070825Z 18006KT 19/13 A3011 RMK A01 T01890127  RH  067%=      5-min Rain = 0
KEA1 070826Z 18006KT 19/13 A3012 RMK A01 T01900127  RH  067%=      5-min Rain = 0
KEA1 070827Z 18006KT 19/13 A3012 RMK A01 T01910128  RH  067%=      5-min Rain = 0
KEA1 070828Z 18006KT 19/13 A3012 RMK A01 T01910128  RH  067%=      5-min Rain = 0
KEA1 070829Z 19006KT 19/13 A3012 RMK A01 T01920127  RH  066%=      5-min Rain = 0
KEA1 070830Z 19006KT 19/13 A3012 RMK A01 T01920128  RH  066%=      5-min Rain = 0
KEA1 070831Z 19006KT 19/13 A3012 RMK A01 T01920128  RH  066%=      5-min Rain = 0
KEA1 070832Z 19006KT 19/13 A3012 RMK A01 T01910128  RH  067%=      5-min Rain = 0
KEA1 070833Z 18007KT 19/13 A3011 RMK A01 T01910128  RH  067%=      5-min Rain = 0
KEA1 070834Z 18007KT 19/13 A3011 RMK A01 T01910129  RH  067%=      5-min Rain = 0
KEA1 070835Z 18007KT 19/13 A3011 RMK A01 T01910129  RH  067%=      5-min Rain = 0
KEA1 070836Z 18007KT 19/13 A3011 RMK A01 T01910129  RH  067%=      5-min Rain = 0
KEA1 070837Z 18007KT 19/13 A3011 RMK A01 T01910129  RH  067%=      5-min Rain = 0
KEA1 070838Z 18007KT 19/13 A3011 RMK A01 T01900129  RH  068%=      5-min Rain = 0
KEA1 070839Z 18007KT 19/13 A3011 RMK A01 T01890129  RH  068%=      5-min Rain = 0
KEA1 070840Z 19007KT 19/13 A3011 RMK A01 T01890129  RH  068%=      5-min Rain = 0
KEA1 070841Z 19007KT 19/13 A3011 RMK A01 T01890129  RH  068%=      5-min Rain = 0
KEA1 070842Z 19006KT 19/13 A3012 RMK A01 T01880129  RH  068%=      5-min Rain = 0
KEA1 070843Z 19006KT 19/13 A3012 RMK A01 T01880129  RH  068%=      5-min Rain = 0
KEA1 070844Z 19006KT 19/13 A3012 RMK A01 T01890129  RH  068%=      5-min Rain = 0
KEA1 070845Z 19006KT 19/13 A3012 RMK A01 T01890129  RH  068%=      5-min Rain = 0
KEA1 070846Z 18006KT 19/13 A3012 RMK A01 T01900129  RH  068%=      5-min Rain = 0
KEA1 070847Z 18006KT 19/13 A3012 RMK A01 T01900129  RH  068%=      5-min Rain = 0
KEA1 070848Z 18006KT 19/13 A3012 RMK A01 T01900129  RH  068%=      5-min Rain = 0
KEA1 070849Z 18006KT 19/13 A3012 RMK A01 T01900129  RH  068%=      5-min Rain = 0
KEA1 070850Z 18006KT 19/13 A3012 RMK A01 T01900129  RH  068%=      5-min Rain = 0
KEA1 070851Z 17006KT 19/13 A3012 RMK A01 T01890129  RH  068%=      5-min Rain = 0
KEA1 070852Z 17006KT 19/13 A3012 RMK A01 T01880129  RH  068%=      5-min Rain = 0
KEA1 070853Z 17006KT 19/13 A3012 RMK A01 T01870129  RH  069%=      5-min Rain = 0
KEA1 070854Z 17006KT 19/13 A3012 RMK A01 T01860129  RH  069%=      5-min Rain = 0
KEA1 070855Z 17006KT 19/13 A3012 RMK A01 T01860129  RH  070%=      5-min Rain = 0
KEA1 070856Z 17006KT 19/13 A3012 RMK A01 T01850129  RH  070%=      5-min Rain = 0
KEA1 070857Z 17006KT 19/13 A3012 RMK A01 T01850129  RH  070%=      5-min Rain = 0
KEA1 070858Z 17006KT 18/13 A3012 RMK A01 T01840129  RH  070%=      5-min Rain = 0
KEA1 070859Z 17006KT 18/13 A3012 RMK A01 T01830129  RH  071%=      5-min Rain = 0
KEA1 070900Z 17006KT 18/13 A3012 RMK A01 T01830129  RH  071%=      5-min Rain = 0
KEA1 070901Z 17006KT 18/13 A3012 RMK A01 T01830129  RH  071%=      5-min Rain = 0
KEA1 070902Z 17006KT 18/13 A3012 RMK A01 T01820129  RH  071%=      5-min Rain = 0
KEA1 070903Z 17006KT 18/13 A3012 RMK A01 T01820129  RH  071%=      5-min Rain = 0
KEA1 070904Z 17006KT 18/13 A3012 RMK A01 T01820129  RH  071%=      5-min Rain = 0
KEA1 070905Z 17006KT 18/13 A3012 RMK A01 T01830129  RH  071%=      5-min Rain = 0
KEA1 070906Z 17006KT 18/13 A3012 RMK A01 T01830129  RH  071%=      5-min Rain = 0
KEA1 070907Z 17006KT 18/13 A3012 RMK A01 T01830129  RH  071%=      5-min Rain = 0
KEA1 070908Z 17005KT 18/13 A3012 RMK A01 T01830129  RH  071%=      5-min Rain = 0
KEA1 070909Z 17005KT 18/13 A3013 RMK A01 T01830129  RH  071%=      5-min Rain = 0
KEA1 070910Z 17006KT 18/13 A3013 RMK A01 T01830129  RH  071%=      5-min Rain = 0
KEA1 070911Z 17005KT 18/13 A3013 RMK A01 T01830129  RH  071%=      5-min Rain = 0
KEA1 070912Z 17005KT 18/13 A3013 RMK A01 T01830130  RH  071%=      5-min Rain = 0
KEA1 070913Z 17006KT 18/13 A3013 RMK A01 T01830129  RH  071%=      5-min Rain = 0
KEA1 070914Z 17006KT 18/13 A3013 RMK A01 T01830129  RH  071%=      5-min Rain = 0
KEA1 070915Z 17006KT 18/13 A3013 RMK A01 T01830129  RH  071%=      5-min Rain = 0
KEA1 070916Z 17006KT 18/13 A3013 RMK A01 T01820129  RH  071%=      5-min Rain = 0
KEA1 070917Z 17006KT 18/13 A3013 RMK A01 T01820129  RH  071%=      5-min Rain = 0
KEA1 070918Z 17007KT 18/13 A3013 RMK A01 T01810129  RH  072%=      5-min Rain = 0
KEA1 070919Z 17007KT 18/13 A3013 RMK A01 T01800129  RH  072%=      5-min Rain = 0
KEA1 070920Z 17007KT 18/13 A3013 RMK A01 T01800129  RH  072%=      5-min Rain = 0
KEA1 070921Z 17007KT 18/13 A3013 RMK A01 T01790129  RH  073%=      5-min Rain = 0
KEA1 070922Z 18008KT 18/13 A3013 RMK A01 T01780129  RH  073%=      5-min Rain = 0
KEA1 070923Z 18008KT 18/13 A3013 RMK A01 T01770129  RH  074%=      5-min Rain = 0
KEA1 070924Z 18008KT 18/13 A3012 RMK A01 T01760129  RH  074%=      5-min Rain = 0
KEA1 070925Z 18008KT 18/13 A3012 RMK A01 T01760130  RH  074%=      5-min Rain = 0
KEA1 070926Z 18008KT 18/13 A3012 RMK A01 T01760129  RH  074%=      5-min Rain = 0
KEA1 070927Z 18008KT 18/13 A3012 RMK A01 T01750129  RH  074%=      5-min Rain = 0
KEA1 070928Z 18008KT 18/13 A3012 RMK A01 T01750129  RH  075%=      5-min Rain = 0
KEA1 070929Z 17008KT 17/13 A3012 RMK A01 T01740129  RH  075%=      5-min Rain = 0
KEA1 070930Z 17007KT 17/13 A3012 RMK A01 T01730129  RH  075%=      5-min Rain = 0
KEA1 070931Z 17007KT 17/13 A3012 RMK A01 T01720129  RH  076%=      5-min Rain = 0
KEA1 070932Z 17007KT 17/13 A3012 RMK A01 T01720129  RH  076%=      5-min Rain = 0
KEA1 070933Z 17007KT 17/13 A3012 RMK A01 T01710129  RH  076%=      5-min Rain = 0
KEA1 070934Z 17007KT 17/13 A3012 RMK A01 T01710130  RH  077%=      5-min Rain = 0
KEA1 070935Z 17007KT 17/13 A3012 RMK A01 T01700130  RH  077%=      5-min Rain = 0
KEA1 070936Z 17007KT 17/13 A3012 RMK A01 T01700130  RH  077%=      5-min Rain = 0
KEA1 070937Z 18007KT 17/13 A3013 RMK A01 T01710130  RH  077%=      5-min Rain = 0
KEA1 070938Z 18007KT 17/13 A3013 RMK A01 T01700130  RH  077%=      5-min Rain = 0
KEA1 070939Z 18006KT 17/13 A3013 RMK A01 T01700130  RH  077%=      5-min Rain = 0
KEA1 070940Z 18006KT 17/13 A3013 RMK A01 T01710130  RH  077%=      5-min Rain = 0
KEA1 070941Z 18006KT 17/13 A3013 RMK A01 T01710130  RH  077%=      5-min Rain = 0
KEA1 070942Z 18006KT 17/13 A3013 RMK A01 T01720130  RH  076%=      5-min Rain = 0
KEA1 070943Z 18006KT 17/13 A3013 RMK A01 T01720130  RH  076%=      5-min Rain = 0
KEA1 070944Z 17006KT 17/13 A3013 RMK A01 T01720130  RH  076%=      5-min Rain = 0
KEA1 070945Z 18006KT 17/13 A3013 RMK A01 T01720130  RH  076%=      5-min Rain = 0
KEA1 070946Z 17006KT 17/13 A3012 RMK A01 T01720130  RH  076%=      5-min Rain = 0
KEA1 070947Z 18006KT 17/13 A3012 RMK A01 T01730130  RH  076%=      5-min Rain = 0
KEA1 070948Z 17006KT 17/13 A3012 RMK A01 T01730130  RH  076%=      5-min Rain = 0
KEA1 070949Z 17006KT 17/13 A3012 RMK A01 T01730130  RH  076%=      5-min Rain = 0
KEA1 070950Z 17007KT 17/13 A3012 RMK A01 T01730130  RH  076%=      5-min Rain = 0
KEA1 070951Z 17007KT 17/13 A3012 RMK A01 T01730130  RH  076%=      5-min Rain = 0
KEA1 070952Z 17007KT 17/13 A3012 RMK A01 T01720130  RH  076%=      5-min Rain = 0
KEA1 070953Z 17008KT 17/13 A3012 RMK A01 T01710130  RH  077%=      5-min Rain = 0
KEA1 070954Z 17008KT 17/13 A3012 RMK A01 T01700130  RH  077%=      5-min Rain = 0
KEA1 070955Z 17008KT 17/13 A3012 RMK A01 T01700130  RH  077%=      5-min Rain = 0
KEA1 070956Z 17008KT 17/13 A3012 RMK A01 T01690130  RH  078%=      5-min Rain = 0
KEA1 070957Z 17008KT 17/13 A3012 RMK A01 T01690131  RH  078%=      5-min Rain = 0
KEA1 070958Z 17008KT 17/13 A3012 RMK A01 T01700131  RH  078%=      5-min Rain = 0
KEA1 070959Z 17008KT 17/13 A3012 RMK A01 T01700131  RH  078%=      5-min Rain = 0
KEA1 071000Z 17007KT 17/13 A3012 RMK A01 T01710131  RH  077%=      5-min Rain = 0
KEA1 071001Z 17007KT 17/13 A3012 RMK A01 T01720131  RH  077%=      5-min Rain = 0
KEA1 071002Z 17006KT 17/13 A3012 RMK A01 T01720131  RH  077%=      5-min Rain = 0
KEA1 071003Z 17006KT 17/13 A3012 RMK A01 T01720131  RH  077%=      5-min Rain = 0
KEA1 071004Z 17006KT 17/13 A3012 RMK A01 T01730131  RH  077%=      5-min Rain = 0
KEA1 071005Z 17006KT 17/13 A3012 RMK A01 T01730131  RH  076%=      5-min Rain = 0
KEA1 071006Z 17006KT 17/13 A3012 RMK A01 T01730131  RH  076%=      5-min Rain = 0
KEA1 071007Z 18006KT 17/13 A3012 RMK A01 T01730131  RH  076%=      5-min Rain = 0
KEA1 071008Z 18006KT 17/13 A3012 RMK A01 T01730131  RH  076%=      5-min Rain = 0
KEA1 071009Z 18006KT 17/13 A3012 RMK A01 T01740131  RH  076%=      5-min Rain = 0
KEA1 071010Z 18006KT 17/13 A3012 RMK A01 T01740131  RH  076%=      5-min Rain = 0
KEA1 071011Z 18006KT 17/13 A3012 RMK A01 T01740131  RH  076%=      5-min Rain = 0
KEA1 071012Z 18006KT 18/13 A3012 RMK A01 T01750131  RH  075%=      5-min Rain = 0
KEA1 071013Z 18006KT 18/13 A3012 RMK A01 T01750131  RH  075%=      5-min Rain = 0
KEA1 071014Z 18006KT 18/13 A3012 RMK A01 T01760131  RH  075%=      5-min Rain = 0
KEA1 071015Z 18006KT 18/13 A3012 RMK A01 T01760131  RH  075%=      5-min Rain = 0
KEA1 071016Z 18006KT 18/13 A3012 RMK A01 T01770131  RH  074%=      5-min Rain = 0
KEA1 071017Z 18005KT 18/13 A3012 RMK A01 T01780131  RH  074%=      5-min Rain = 0
KEA1 071018Z 18005KT 18/13 A3012 RMK A01 T01790131  RH  074%=      5-min Rain = 0
KEA1 071019Z 17005KT 18/13 A3013 RMK A01 T01790131  RH  073%=      5-min Rain = 0
KEA1 071020Z 17005KT 18/13 A3013 RMK A01 T01800131  RH  073%=      5-min Rain = 0
KEA1 071021Z 17004KT 18/13 A3013 RMK A01 T01810131  RH  072%=      5-min Rain = 0
KEA1 071022Z 16003KT 18/13 A3013 RMK A01 T01810131  RH  072%=      5-min Rain = 0
KEA1 071023Z 16003KT 18/13 A3013 RMK A01 T01800131  RH  073%=      5-min Rain = 0
KEA1 071024Z 14002KT 18/13 A3013 RMK A01 T01780131  RH  074%=      5-min Rain = 0
KEA1 071025Z 13002KT 18/13 A3013 RMK A01 T01760131  RH  075%=      5-min Rain = 0
KEA1 071026Z 11001KT 17/13 A3013 RMK A01 T01740131  RH  076%=      5-min Rain = 0
KEA1 071027Z 09002KT 17/13 A3013 RMK A01 T01720131  RH  077%=      5-min Rain = 0
KEA1 071028Z 07002KT 17/13 A3013 RMK A01 T01700131  RH  077%=      5-min Rain = 0
KEA1 071029Z 07002KT 17/13 A3013 RMK A01 T01680131  RH  078%=      5-min Rain = 0
KEA1 071030Z 05003KT 17/13 A3013 RMK A01 T01670131  RH  079%=      5-min Rain = 0
KEA1 071031Z 05003KT 16/13 A3013 RMK A01 T01640130  RH  080%=      5-min Rain = 0
KEA1 071032Z 05004KT 16/13 A3013 RMK A01 T01630130  RH  081%=      5-min Rain = 0
KEA1 071033Z 05003KT 16/13 A3013 RMK A01 T01610130  RH  082%=      5-min Rain = 0
KEA1 071034Z 04004KT 16/13 A3013 RMK A01 T01600130  RH  082%=      5-min Rain = 0
KEA1 071035Z 04004KT 16/13 A3013 RMK A01 T01600130  RH  082%=      5-min Rain = 0
KEA1 071036Z 04003KT 16/13 A3013 RMK A01 T01600130  RH  083%=      5-min Rain = 0
KEA1 071037Z 03004KT 16/13 A3013 RMK A01 T01590130  RH  083%=      5-min Rain = 0
KEA1 071038Z 05004KT 16/13 A3013 RMK A01 T01580130  RH  083%=      5-min Rain = 0
KEA1 071039Z 03003KT 16/13 A3013 RMK A01 T01600130  RH  083%=      5-min Rain = 0
KEA1 071040Z 03004KT 16/13 A3013 RMK A01 T01610130  RH  082%=      5-min Rain = 0
KEA1 071041Z 04003KT 16/13 A3013 RMK A01 T01610130  RH  082%=      5-min Rain = 0
KEA1 071042Z 05002KT 16/13 A3013 RMK A01 T01610130  RH  082%=      5-min Rain = 0
KEA1 071043Z 04003KT 16/13 A3013 RMK A01 T01640131  RH  081%=      5-min Rain = 0
KEA1 071044Z 05003KT 17/13 A3013 RMK A01 T01660131  RH  080%=      5-min Rain = 0
KEA1 071045Z 07001KT 17/13 A3013 RMK A01 T01670131  RH  079%=      5-min Rain = 0
KEA1 071046Z 04003KT 17/13 A3013 RMK A01 T01690131  RH  078%=      5-min Rain = 0
KEA1 071047Z 10002KT 17/13 A3014 RMK A01 T01700131  RH  078%=      5-min Rain = 0
KEA1 071048Z 08001KT 17/13 A3014 RMK A01 T01730131  RH  076%=      5-min Rain = 0
KEA1 071049Z 08001KT 18/13 A3014 RMK A01 T01760131  RH  075%=      5-min Rain = 0
KEA1 071050Z 09001KT 18/13 A3014 RMK A01 T01780131  RH  074%=      5-min Rain = 0
KEA1 071051Z 14002KT 18/13 A3013 RMK A01 T01800131  RH  073%=      5-min Rain = 0
KEA1 071052Z 10001KT 18/13 A3013 RMK A01 T01820131  RH  072%=      5-min Rain = 0
KEA1 071053Z 15001KT 18/13 A3013 RMK A01 T01830130  RH  071%=      5-min Rain = 0
KEA1 071054Z 13001KT 19/13 A3013 RMK A01 T01850131  RH  071%=      5-min Rain = 0
KEA1 071055Z 15001KT 19/13 A3013 RMK A01 T01860131  RH  070%=      5-min Rain = 0
KEA1 071056Z 15001KT 19/13 A3013 RMK A01 T01870131  RH  070%=      5-min Rain = 0
KEA1 071057Z 17002KT 19/13 A3013 RMK A01 T01870130  RH  069%=      5-min Rain = 0
KEA1 071058Z 19002KT 19/13 A3013 RMK A01 T01900130  RH  068%=      5-min Rain = 0
KEA1 071059Z 18002KT 19/13 A3013 RMK A01 T01920130  RH  067%=      5-min Rain = 0
KEA1 071100Z 17003KT 19/13 A3013 RMK A01 T01940130  RH  066%=      5-min Rain = 0
KEA1 071101Z 18003KT 20/13 A3013 RMK A01 T01960130  RH  066%=      5-min Rain = 0
KEA1 071102Z 18003KT 20/13 A3013 RMK A01 T01970130  RH  065%=      5-min Rain = 0
KEA1 071103Z 18003KT 20/13 A3014 RMK A01 T01990130  RH  065%=      5-min Rain = 0
KEA1 071104Z 18003KT 20/13 A3014 RMK A01 T02000131  RH  064%=      5-min Rain = 0
KEA1 071105Z 18003KT 20/13 A3014 RMK A01 T02000130  RH  064%=      5-min Rain = 0
KEA1 071106Z 18003KT 20/13 A3014 RMK A01 T02000131  RH  064%=      5-min Rain = 0
KEA1 071107Z 18004KT 20/13 A3014 RMK A01 T02000130  RH  064%=      5-min Rain = 0
KEA1 071108Z 18004KT 20/13 A3014 RMK A01 T02000130  RH  064%=      5-min Rain = 0
KEA1 071109Z 18004KT 20/13 A3014 RMK A01 T02000130  RH  064%=      5-min Rain = 0
KEA1 071110Z 18004KT 20/13 A3014 RMK A01 T02010130  RH  064%=      5-min Rain = 0
KEA1 071111Z 18004KT 20/13 A3014 RMK A01 T02010130  RH  064%=      5-min Rain = 0
KEA1 071112Z 18004KT 20/13 A3014 RMK A01 T02010130  RH  064%=      5-min Rain = 0
KEA1 071113Z 18004KT 20/13 A3014 RMK A01 T02000131  RH  064%=      5-min Rain = 0
KEA1 071114Z 18003KT 20/13 A3014 RMK A01 T01990130  RH  065%=      5-min Rain = 0
KEA1 071115Z 17003KT 20/13 A3014 RMK A01 T01980130  RH  065%=      5-min Rain = 0
KEA1 071116Z 16003KT 20/13 A3014 RMK A01 T01980130  RH  065%=      5-min Rain = 0
KEA1 071117Z 16003KT 20/13 A3014 RMK A01 T01980129  RH  065%=      5-min Rain = 0
KEA1 071118Z 16003KT 20/13 A3014 RMK A01 T01990130  RH  064%=      5-min Rain = 0
KEA1 071119Z 16003KT 20/13 A3014 RMK A01 T01990130  RH  064%=      5-min Rain = 0
KEA1 071120Z 15003KT 20/13 A3015 RMK A01 T01990131  RH  064%=      5-min Rain = 0
KEA1 071121Z 15003KT 20/13 A3015 RMK A01 T01980131  RH  065%=      5-min Rain = 0
KEA1 071122Z 15003KT 20/13 A3015 RMK A01 T01980131  RH  065%=      5-min Rain = 0
KEA1 071123Z 14003KT 20/13 A3015 RMK A01 T01960131  RH  066%=      5-min Rain = 0
KEA1 071124Z 14003KT 20/13 A3015 RMK A01 T01950131  RH  066%=      5-min Rain = 0
KEA1 071125Z 15003KT 19/13 A3015 RMK A01 T01940131  RH  067%=      5-min Rain = 0
KEA1 071126Z 14003KT 19/13 A3015 RMK A01 T01940131  RH  067%=      5-min Rain = 0
KEA1 071127Z 14003KT 19/13 A3015 RMK A01 T01920130  RH  067%=      5-min Rain = 0
KEA1 071128Z 14004KT 19/13 A3015 RMK A01 T01920131  RH  068%=      5-min Rain = 0
KEA1 071129Z 14004KT 19/13 A3015 RMK A01 T01890131  RH  069%=      5-min Rain = 0
KEA1 071130Z 13004KT 19/13 A3015 RMK A01 T01860131  RH  070%=      5-min Rain = 0
KEA1 071131Z 13004KT 18/13 A3015 RMK A01 T01830131  RH  072%=      5-min Rain = 0
KEA1 071132Z 12004KT 18/13 A3015 RMK A01 T01780131  RH  074%=      5-min Rain = 0
KEA1 071133Z 11004KT 17/13 A3015 RMK A01 T01740131  RH  076%=      5-min Rain = 0
KEA1 071134Z 10004KT 17/13 A3015 RMK A01 T01710131  RH  078%=      5-min Rain = 0
KEA1 071135Z 10004KT 17/13 A3015 RMK A01 T01680131  RH  079%=      5-min Rain = 0
KEA1 071136Z 10004KT 17/13 A3015 RMK A01 T01670131  RH  079%=      5-min Rain = 0
KEA1 071137Z 10004KT 17/13 A3015 RMK A01 T01660132  RH  080%=      5-min Rain = 0
KEA1 071138Z 10004KT 17/13 A3015 RMK A01 T01660132  RH  080%=      5-min Rain = 0
KEA1 071139Z 10004KT 17/13 A3015 RMK A01 T01650132  RH  081%=      5-min Rain = 0
KEA1 071140Z 10004KT 17/13 A3015 RMK A01 T01650132  RH  081%=      5-min Rain = 0
KEA1 071141Z 10004KT 17/13 A3015 RMK A01 T01650132  RH  081%=      5-min Rain = 0
KEA1 071142Z 11004KT 17/13 A3015 RMK A01 T01660132  RH  080%=      5-min Rain = 0
KEA1 071143Z 10004KT 17/13 A3015 RMK A01 T01660131  RH  080%=      5-min Rain = 0
KEA1 071144Z 10004KT 17/13 A3015 RMK A01 T01670132  RH  080%=      5-min Rain = 0
KEA1 071145Z 10004KT 17/13 A3015 RMK A01 T01670131  RH  079%=      5-min Rain = 0
KEA1 071146Z 11004KT 17/13 A3015 RMK A01 T01690132  RH  079%=      5-min Rain = 0
KEA1 071147Z 11004KT 17/13 A3015 RMK A01 T01690132  RH  079%=      5-min Rain = 0
KEA1 071148Z 11004KT 17/13 A3015 RMK A01 T01690131  RH  078%=      5-min Rain = 0
KEA1 071149Z 10004KT 17/13 A3015 RMK A01 T01690131  RH  078%=      5-min Rain = 0
KEA1 071150Z 10004KT 17/13 A3015 RMK A01 T01690132  RH  079%=      5-min Rain = 0
KEA1 071151Z 10004KT 17/13 A3015 RMK A01 T01680132  RH  079%=      5-min Rain = 0
KEA1 071152Z 09004KT 17/13 A3015 RMK A01 T01670132  RH  080%=      5-min Rain = 0
KEA1 071153Z 09003KT 17/13 A3015 RMK A01 T01660132  RH  080%=      5-min Rain = 0
KEA1 071154Z 08004KT 17/13 A3015 RMK A01 T01650132  RH  081%=      5-min Rain = 0
KEA1 071155Z 08005KT 16/13 A3015 RMK A01 T01640132  RH  081%=      5-min Rain = 0
KEA1 071156Z 07005KT 16/13 A3016 RMK A01 T01640132  RH  081%=      5-min Rain = 0
KEA1 071157Z 07005KT 16/13 A3016 RMK A01 T01640132  RH  081%=      5-min Rain = 0
KEA1 071158Z 07005KT 16/13 A3016 RMK A01 T01640132  RH  081%=      5-min Rain = 0
KEA1 071159Z 06005KT 16/13 A3016 RMK A01 T01640132  RH  081%=      5-min Rain = 0
KEA1 071200Z 06005KT 16/13 A3016 RMK A01 T01640132  RH  081%=      5-min Rain = 0
KEA1 071201Z 06005KT 17/13 A3016 RMK A01 T01650132  RH  081%=      5-min Rain = 0
KEA1 071202Z 06005KT 17/13 A3016 RMK A01 T01650132  RH  081%=      5-min Rain = 0
KEA1 071203Z 06005KT 17/13 A3016 RMK A01 T01650131  RH  081%=      5-min Rain = 0
KEA1 071204Z 06005KT 17/13 A3016 RMK A01 T01650132  RH  081%=      5-min Rain = 0
KEA1 071205Z 06005KT 16/13 A3016 RMK A01 T01640132  RH  081%=      5-min Rain = 0
KEA1 071206Z 06005KT 16/13 A3016 RMK A01 T01640132  RH  082%=      5-min Rain = 0
KEA1 071207Z 05005KT 16/13 A3016 RMK A01 T01630132  RH  082%=      5-min Rain = 0
KEA1 071208Z 05005KT 16/13 A3016 RMK A01 T01610131  RH  082%=      5-min Rain = 0
KEA1 071209Z 05005KT 16/13 A3016 RMK A01 T01600131  RH  083%=      5-min Rain = 0
KEA1 071210Z 05005KT 16/13 A3016 RMK A01 T01600131  RH  083%=      5-min Rain = 0
KEA1 071211Z 05006KT 16/13 A3016 RMK A01 T01590131  RH  083%=      5-min Rain = 0
KEA1 071212Z 04006KT 16/13 A3016 RMK A01 T01580130  RH  084%=      5-min Rain = 0
KEA1 071213Z 04006KT 16/13 A3016 RMK A01 T01570130  RH  084%=      5-min Rain = 0
KEA1 071214Z 05006KT 16/13 A3016 RMK A01 T01560130  RH  085%=      5-min Rain = 0
KEA1 071215Z 05006KT 16/13 A3016 RMK A01 T01560131  RH  085%=      5-min Rain = 0
KEA1 071216Z 05007KT 16/13 A3016 RMK A01 T01560131  RH  085%=      5-min Rain = 0
KEA1 071217Z 05007KT 16/13 A3016 RMK A01 T01560131  RH  085%=      5-min Rain = 0
KEA1 071218Z 05007KT 16/13 A3016 RMK A01 T01560131  RH  085%=      5-min Rain = 0
KEA1 071219Z 05006KT 16/13 A3017 RMK A01 T01570131  RH  085%=      5-min Rain = 0
KEA1 071220Z 05006KT 16/13 A3017 RMK A01 T01580131  RH  084%=      5-min Rain = 0
KEA1 071221Z 05006KT 16/13 A3017 RMK A01 T01580131  RH  084%=      5-min Rain = 0
KEA1 071222Z 05006KT 16/13 A3017 RMK A01 T01590131  RH  083%=      5-min Rain = 0
KEA1 071223Z 05006KT 16/13 A3017 RMK A01 T01590131  RH  083%=      5-min Rain = 0
KEA1 071224Z 05005KT 16/13 A3017 RMK A01 T01600131  RH  083%=      5-min Rain = 0
KEA1 071225Z 05005KT 16/13 A3017 RMK A01 T01600131  RH  083%=      5-min Rain = 0
KEA1 071226Z 05005KT 16/13 A3017 RMK A01 T01600131  RH  083%=      5-min Rain = 0
KEA1 071227Z 05005KT 16/13 A3017 RMK A01 T01610131  RH  082%=      5-min Rain = 0
KEA1 071228Z 05005KT 16/13 A3017 RMK A01 T01610131  RH  082%=      5-min Rain = 0
KEA1 071229Z 05005KT 16/13 A3017 RMK A01 T01620131  RH  082%=      5-min Rain = 0
KEA1 071230Z 05005KT 16/13 A3017 RMK A01 T01630131  RH  081%=      5-min Rain = 0
KEA1 071231Z 05005KT 16/13 A3017 RMK A01 T01640131  RH  081%=      5-min Rain = 0
KEA1 071232Z 05006KT 16/13 A3017 RMK A01 T01640131  RH  081%=      5-min Rain = 0
KEA1 071233Z 05005KT 16/13 A3017 RMK A01 T01640131  RH  081%=      5-min Rain = 0
KEA1 071234Z 05005KT 16/13 A3017 RMK A01 T01640131  RH  081%=      5-min Rain = 0
KEA1 071235Z 05005KT 17/13 A3017 RMK A01 T01650131  RH  081%=      5-min Rain = 0
KEA1 071236Z 05005KT 17/13 A3017 RMK A01 T01650131  RH  080%=      5-min Rain = 0
KEA1 071237Z 05005KT 17/13 A3017 RMK A01 T01660131  RH  080%=      5-min Rain = 0
KEA1 071238Z 06005KT 17/13 A3017 RMK A01 T01660131  RH  080%=      5-min Rain = 0
KEA1 071239Z 06005KT 17/13 A3017 RMK A01 T01670131  RH  079%=      5-min Rain = 0
KEA1 071240Z 06005KT 17/13 A3017 RMK A01 T01680131  RH  079%=      5-min Rain = 0
KEA1 071241Z 06005KT 17/13 A3017 RMK A01 T01680131  RH  079%=      5-min Rain = 0
KEA1 071242Z 06004KT 17/13 A3017 RMK A01 T01680131  RH  079%=      5-min Rain = 0
KEA1 071243Z 07004KT 17/13 A3017 RMK A01 T01690131  RH  079%=      5-min Rain = 0
KEA1 071244Z 07003KT 17/13 A3017 RMK A01 T01680131  RH  079%=      5-min Rain = 0
KEA1 071245Z 08002KT 17/13 A3017 RMK A01 T01690133  RH  080%=      5-min Rain = 0
KEA1 071246Z 08002KT 17/14 A3017 RMK A01 T01680136  RH  081%=      5-min Rain = 0
KEA1 071247Z 08003KT 17/14 A3017 RMK A01 T01670135  RH  081%=      5-min Rain = 0
KEA1 071248Z 08002KT 17/13 A3017 RMK A01 T01660134  RH  081%=      5-min Rain = 0
KEA1 071249Z 09002KT 17/13 A3017 RMK A01 T01660134  RH  081%=      5-min Rain = 0
KEA1 071250Z 10002KT 17/14 A3017 RMK A01 T01660135  RH  082%=      5-min Rain = 0
KEA1 071251Z 10002KT 17/14 A3017 RMK A01 T01660135  RH  082%=      5-min Rain = 0
KEA1 071252Z 10002KT 17/14 A3017 RMK A01 T01660136  RH  082%=      5-min Rain = 0
KEA1 071253Z 10002KT 17/14 A3017 RMK A01 T01660137  RH  083%=      5-min Rain = 0
KEA1 071254Z 11003KT 17/14 A3017 RMK A01 T01660138  RH  083%=      5-min Rain = 0
KEA1 071255Z 10003KT 17/14 A3017 RMK A01 T01660138  RH  084%=      5-min Rain = 0
KEA1 071256Z 10004KT 17/14 A3017 RMK A01 T01660138  RH  083%=      5-min Rain = 0
KEA1 071257Z 10004KT 17/14 A3017 RMK A01 T01660138  RH  083%=      5-min Rain = 0
KEA1 071258Z 10004KT 17/14 A3017 RMK A01 T01670138  RH  083%=      5-min Rain = 0
KEA1 071259Z 11004KT 17/14 A3017 RMK A01 T01670139  RH  083%=      5-min Rain = 0
KEA1 071300Z 11004KT 17/14 A3017 RMK A01 T01680140  RH  084%=      5-min Rain = 0
KEA1 071301Z 10004KT 17/14 A3017 RMK A01 T01680140  RH  083%=      5-min Rain = 0
KEA1 071302Z 10005KT 17/14 A3017 RMK A01 T01700139  RH  082%=      5-min Rain = 0
KEA1 071303Z 10004KT 17/14 A3017 RMK A01 T01720139  RH  081%=      5-min Rain = 0
KEA1 071304Z 11004KT 17/14 A3017 RMK A01 T01740141  RH  081%=      5-min Rain = 0
KEA1 071305Z 11003KT 18/14 A3017 RMK A01 T01770141  RH  080%=      5-min Rain = 0
KEA1 071306Z 11004KT 18/14 A3017 RMK A01 T01780142  RH  079%=      5-min Rain = 0
KEA1 071307Z 10003KT 18/14 A3017 RMK A01 T01810142  RH  078%=      5-min Rain = 0
KEA1 071308Z 10003KT 18/14 A3017 RMK A01 T01820143  RH  078%=      5-min Rain = 0
KEA1 071309Z 10003KT 18/14 A3017 RMK A01 T01840144  RH  078%=      5-min Rain = 0
KEA1 071310Z 09003KT 19/14 A3017 RMK A01 T01850144  RH  077%=      5-min Rain = 0
KEA1 071311Z 10003KT 19/14 A3017 RMK A01 T01860144  RH  077%=      5-min Rain = 0
KEA1 071312Z 09003KT 19/14 A3017 RMK A01 T01860143  RH  076%=      5-min Rain = 0
KEA1 071313Z 09002KT 19/15 A3017 RMK A01 T01870145  RH  076%=      5-min Rain = 0
KEA1 071314Z 08003KT 19/15 A3017 RMK A01 T01870145  RH  076%=      5-min Rain = 0
KEA1 071315Z 08003KT 19/14 A3017 RMK A01 T01880144  RH  076%=      5-min Rain = 0
KEA1 071316Z 08003KT 19/15 A3017 RMK A01 T01890145  RH  076%=      5-min Rain = 0
KEA1 071317Z 08003KT 19/15 A3017 RMK A01 T01900146  RH  076%=      5-min Rain = 0
KEA1 071318Z 08002KT 19/15 A3017 RMK A01 T01910145  RH  075%=      5-min Rain = 0
KEA1 071319Z 08002KT 19/15 A3017 RMK A01 T01930147  RH  075%=      5-min Rain = 0
KEA1 071320Z 08003KT 20/15 A3017 RMK A01 T01960147  RH  074%=      5-min Rain = 0
KEA1 071321Z 08002KT 20/15 A3017 RMK A01 T01990147  RH  072%=      5-min Rain = 0
KEA1 071322Z 09003KT 20/15 A3017 RMK A01 T02000146  RH  071%=      5-min Rain = 0
KEA1 071323Z 08003KT 20/15 A3017 RMK A01 T02020148  RH  071%=      5-min Rain = 0
KEA1 071324Z 08003KT 20/15 A3017 RMK A01 T02040146  RH  069%=      5-min Rain = 0
KEA1 071325Z 09002KT 21/15 A3017 RMK A01 T02050146  RH  069%=      5-min Rain = 0
KEA1 071326Z 08003KT 21/15 A3017 RMK A01 T02070147  RH  069%=      5-min Rain = 0
KEA1 071327Z 08003KT 21/14 A3017 RMK A01 T02080143  RH  066%=      5-min Rain = 0
KEA1 071328Z 08003KT 21/14 A3017 RMK A01 T02090144  RH  066%=      5-min Rain = 0
KEA1 071329Z 08003KT 21/14 A3017 RMK A01 T02100144  RH  066%=      5-min Rain = 0
KEA1 071330Z 08002KT 21/15 A3017 RMK A01 T02100146  RH  067%=      5-min Rain = 0
KEA1 071331Z 07003KT 21/14 A3017 RMK A01 T02110144  RH  066%=      5-min Rain = 0
KEA1 071332Z 08003KT 21/14 A3017 RMK A01 T02110144  RH  065%=      5-min Rain = 0
KEA1 071333Z 07003KT 21/14 A3017 RMK A01 T02110144  RH  066%=      5-min Rain = 0
KEA1 071334Z 08003KT 21/14 A3017 RMK A01 T02110144  RH  066%=      5-min Rain = 0
KEA1 071335Z 08002KT 21/14 A3017 RMK A01 T02110144  RH  066%=      5-min Rain = 0
KEA1 071336Z 07003KT 21/15 A3017 RMK A01 T02110145  RH  066%=      5-min Rain = 0
KEA1 071337Z 08003KT 21/14 A3018 RMK A01 T02120144  RH  065%=      5-min Rain = 0
KEA1 071338Z 07003KT 21/15 A3018 RMK A01 T02130145  RH  065%=      5-min Rain = 0
KEA1 071339Z 07003KT 21/14 A3018 RMK A01 T02130142  RH  064%=      5-min Rain = 0
KEA1 071340Z 07003KT 21/15 A3018 RMK A01 T02140146  RH  065%=      5-min Rain = 0
KEA1 071341Z 07002KT 22/15 A3018 RMK A01 T02150145  RH  064%=      5-min Rain = 0
KEA1 071342Z 07002KT 22/15 A3018 RMK A01 T02170146  RH  064%=      5-min Rain = 0
KEA1 071343Z 07003KT 22/15 A3018 RMK A01 T02190145  RH  063%=      5-min Rain = 0
KEA1 071344Z 07003KT 22/15 A3018 RMK A01 T02210145  RH  062%=      5-min Rain = 0
KEA1 071345Z 07003KT 22/15 A3018 RMK A01 T02230146  RH  062%=      5-min Rain = 0
KEA1 071346Z 08002KT 22/15 A3018 RMK A01 T02230146  RH  061%=      5-min Rain = 0
KEA1 071347Z 07003KT 23/15 A3018 RMK A01 T02250148  RH  062%=      5-min Rain = 0
KEA1 071348Z 07003KT 23/14 A3018 RMK A01 T02260144  RH  060%=      5-min Rain = 0
KEA1 071349Z 06003KT 23/15 A3018 RMK A01 T02260147  RH  061%=      5-min Rain = 0
KEA1 071350Z 08003KT 23/15 A3018 RMK A01 T02270145  RH  060%=      5-min Rain = 0
KEA1 071351Z 08002KT 23/15 A3018 RMK A01 T02270145  RH  060%=      5-min Rain = 0
KEA1 071352Z 06003KT 23/15 A3018 RMK A01 T02260145  RH  060%=      5-min Rain = 0
KEA1 071353Z 06004KT 23/15 A3018 RMK A01 T02250145  RH  061%=      5-min Rain = 0
KEA1 071354Z 07003KT 22/14 A3018 RMK A01 T02220142  RH  060%=      5-min Rain = 0
KEA1 071355Z 07003KT 22/14 A3018 RMK A01 T02210144  RH  062%=      5-min Rain = 0
KEA1 071356Z 05004KT 22/15 A3018 RMK A01 T02210145  RH  062%=      5-min Rain = 0
KEA1 071357Z 06004KT 22/15 A3018 RMK A01 T02210145  RH  062%=      5-min Rain = 0
KEA1 071358Z 08003KT 22/15 A3018 RMK A01 T02210146  RH  062%=      5-min Rain = 0
KEA1 071359Z 10003KT 22/15 A3018 RMK A01 T02230149  RH  063%=      5-min Rain = 0
KEA1 071400Z 09002KT 22/15 A3018 RMK A01 T02240149  RH  062%=      5-min Rain = 0
KEA1 071401Z 07003KT 23/15 A3018 RMK A01 T02260146  RH  060%=      5-min Rain = 0
KEA1 071402Z 05005KT 23/14 A3018 RMK A01 T02270143  RH  059%=      5-min Rain = 0
KEA1 071403Z 05005KT 23/14 A3018 RMK A01 T02270142  RH  059%=      5-min Rain = 0
KEA1 071404Z 05003KT 23/14 A3018 RMK A01 T02280143  RH  059%=      5-min Rain = 0
KEA1 071405Z 09001KT 23/15 A3018 RMK A01 T02290148  RH  060%=      5-min Rain = 0
KEA1 071406Z 09003KT 23/15 A3018 RMK A01 T02320147  RH  059%=      5-min Rain = 0
KEA1 071407Z 09003KT 23/15 A3018 RMK A01 T02330145  RH  058%=      5-min Rain = 0
KEA1 071408Z 08004KT 23/15 A3018 RMK A01 T02330145  RH  057%=      5-min Rain = 0
KEA1 071409Z 08004KT 23/14 A3018 RMK A01 T02330142  RH  056%=      5-min Rain = 0
KEA1 071410Z 08003KT 23/14 A3018 RMK A01 T02320141  RH  056%=      5-min Rain = 0
KEA1 071411Z 07003KT 23/14 A3018 RMK A01 T02320141  RH  056%=      5-min Rain = 0
KEA1 071412Z 10004KT 23/14 A3018 RMK A01 T02320143  RH  057%=      5-min Rain = 0
KEA1 071413Z 10003KT 23/14 A3018 RMK A01 T02340142  RH  056%=      5-min Rain = 0
KEA1 071414Z 10004KT 24/14 A3018 RMK A01 T02350144  RH  057%=      5-min Rain = 0
KEA1 071415Z 12004KT 24/15 A3018 RMK A01 T02370146  RH  057%=      5-min Rain = 0
KEA1 071416Z 09003KT 24/15 A3018 RMK A01 T02380145  RH  056%=      5-min Rain = 0
KEA1 071417Z 10003KT 24/15 A3018 RMK A01 T02390145  RH  056%=      5-min Rain = 0
KEA1 071418Z 11003KT 24/14 A3018 RMK A01 T02390141  RH  054%=      5-min Rain = 0
KEA1 071419Z 12003KT 24/14 A3018 RMK A01 T02390142  RH  055%=      5-min Rain = 0
KEA1 071420Z 11002KT 24/14 A3018 RMK A01 T02390142  RH  054%=      5-min Rain = 0
KEA1 071421Z 15004KT 24/14 A3018 RMK A01 T02400143  RH  055%=      5-min Rain = 0
KEA1 071422Z 14005KT 24/14 A3018 RMK A01 T02400142  RH  054%=      5-min Rain = 0
KEA1 071423Z 13006KT 24/14 A3018 RMK A01 T02410144  RH  055%=      5-min Rain = 0
KEA1 071424Z 12005KT 24/14 A3018 RMK A01 T02430143  RH  054%=      5-min Rain = 0
KEA1 071425Z 12007KT 24/14 A3018 RMK A01 T02440143  RH  054%=      5-min Rain = 0
KEA1 071426Z 12005KT 24/14 A3018 RMK A01 T02440143  RH  053%=      5-min Rain = 0
KEA1 071427Z 12007KT 24/14 A3017 RMK A01 T02440144  RH  054%=      5-min Rain = 0
KEA1 071428Z 14006KT 24/14 A3017 RMK A01 T02440144  RH  053%=      5-min Rain = 0
KEA1 071429Z 13006KT 24/15 A3017 RMK A01 T02440145  RH  054%=      5-min Rain = 0
KEA1 071430Z 12006KT 25/14 A3017 RMK A01 T02450144  RH  053%=      5-min Rain = 0
KEA1 071431Z 14006KT 25/15 A3017 RMK A01 T02450145  RH  054%=      5-min Rain = 0
KEA1 071432Z 13007KT 25/15 A3017 RMK A01 T02460145  RH  053%=      5-min Rain = 0
KEA1 071433Z 12007KT 25/15 A3017 RMK A01 T02460145  RH  053%=      5-min Rain = 0
KEA1 071434Z 12007KT 25/15 A3017 RMK A01 T02470146  RH  053%=      5-min Rain = 0
KEA1 071435Z 12007KT 25/15 A3017 RMK A01 T02480146  RH  053%=      5-min Rain = 0
KEA1 071436Z 13009KT 25/15 A3017 RMK A01 T02490145  RH  053%=      5-min Rain = 0
KEA1 071437Z 13009KT 25/14 A3017 RMK A01 T02490143  RH  052%=      5-min Rain = 0
KEA1 071438Z 13009KT 25/14 A3017 RMK A01 T02490142  RH  052%=      5-min Rain = 0
KEA1 071439Z 13010KT 25/14 A3017 RMK A01 T02480143  RH  052%=      5-min Rain = 0
KEA1 071440Z 15009KT 25/14 A3017 RMK A01 T02490144  RH  052%=      5-min Rain = 0
KEA1 071441Z 14008KT 25/14 A3017 RMK A01 T02500144  RH  052%=      5-min Rain = 0
KEA1 071442Z 14011KT 25/14 A3017 RMK A01 T02530144  RH  051%=      5-min Rain = 0
KEA1 071443Z 14008KT 25/14 A3017 RMK A01 T02540143  RH  050%=      5-min Rain = 0
KEA1 071444Z 14008KT 26/15 A3017 RMK A01 T02550145  RH  051%=      5-min Rain = 0
KEA1 071445Z 13010KT 26/14 A3017 RMK A01 T02560144  RH  050%=      5-min Rain = 0
KEA1 071446Z 14010KT 26/14 A3017 RMK A01 T02560143  RH  050%=      5-min Rain = 0
KEA1 071447Z 14008KT 25/15 A3017 RMK A01 T02540145  RH  051%=      5-min Rain = 0
KEA1 071448Z 15008KT 26/15 A3017 RMK A01 T02550146  RH  051%=      5-min Rain = 0
KEA1 071449Z 14009KT 26/14 A3017 RMK A01 T02560144  RH  050%=      5-min Rain = 0
KEA1 071450Z 13011KT 26/14 A3017 RMK A01 T02560143  RH  050%=      5-min Rain = 0
KEA1 071451Z 13010KT 25/14 A3017 RMK A01 T02540142  RH  050%=      5-min Rain = 0
KEA1 071452Z 13008KT 25/15 A3018 RMK A01 T02520145  RH  051%=      5-min Rain = 0
KEA1 071453Z 14008KT 25/14 A3018 RMK A01 T02530144  RH  051%=      5-min Rain = 0
KEA1 071454Z 15006KT 25/15 A3018 RMK A01 T02530145  RH  051%=      5-min Rain = 0
KEA1 071455Z 13006KT 26/15 A3018 RMK A01 T02550147  RH  051%=      5-min Rain = 0
KEA1 071456Z 13011KT 26/15 A3018 RMK A01 T02570146  RH  050%=      5-min Rain = 0
KEA1 071457Z 14010KT 26/14 A3018 RMK A01 T02560144  RH  050%=      5-min Rain = 0
KEA1 071458Z 14009KT 25/14 A3018 RMK A01 T02540143  RH  050%=      5-min Rain = 0
KEA1 071459Z 14008KT 25/14 A3018 RMK A01 T02510143  RH  051%=      5-min Rain = 0
KEA1 071500Z 15006KT 25/14 A3018 RMK A01 T02500144  RH  052%=      5-min Rain = 0
KEA1 071501Z 13004KT 25/15 A3018 RMK A01 T02500146  RH  053%=      5-min Rain = 0
KEA1 071502Z 14006KT 25/15 A3018 RMK A01 T02510148  RH  053%=      5-min Rain = 0
KEA1 071503Z 14007KT 25/15 A3018 RMK A01 T02530145  RH  051%=      5-min Rain = 0
KEA1 071504Z 14005KT 25/15 A3018 RMK A01 T02520145  RH  051%=      5-min Rain = 0
KEA1 071505Z 12004KT 25/15 A3018 RMK A01 T02520147  RH  052%=      5-min Rain = 0
KEA1 071506Z 13004KT 25/15 A3018 RMK A01 T02530148  RH  052%=      5-min Rain = 0
KEA1 071507Z 14003KT 26/15 A3018 RMK A01 T02550146  RH  051%=      5-min Rain = 0
KEA1 071508Z 13002KT 26/15 A3018 RMK A01 T02560146  RH  051%=      5-min Rain = 0
KEA1 071509Z 14006KT 26/15 A3018 RMK A01 T02570148  RH  051%=      5-min Rain = 0
KEA1 071510Z 14005KT 26/15 A3018 RMK A01 T02580146  RH  050%=      5-min Rain = 0
KEA1 071511Z 16007KT 26/14 A3018 RMK A01 T02590143  RH  049%=      5-min Rain = 0
KEA1 071512Z 15006KT 26/14 A3018 RMK A01 T02590141  RH  048%=      5-min Rain = 0
KEA1 071513Z 15004KT 26/14 A3018 RMK A01 T02580144  RH  049%=      5-min Rain = 0
KEA1 071514Z 13006KT 26/14 A3018 RMK A01 T02600144  RH  049%=      5-min Rain = 0
KEA1 071515Z 12005KT 26/14 A3018 RMK A01 T02600143  RH  048%=      5-min Rain = 0
KEA1 071516Z 12005KT 26/15 A3018 RMK A01 T02610146  RH  049%=      5-min Rain = 0
KEA1 071517Z 13005KT 26/15 A3018 RMK A01 T02630148  RH  049%=      5-min Rain = 0
KEA1 071518Z 13005KT 27/15 A3018 RMK A01 T02650146  RH  048%=      5-min Rain = 0
KEA1 071519Z 13006KT 27/15 A3018 RMK A01 T02660145  RH  048%=      5-min Rain = 0
KEA1 071520Z 14006KT 27/14 A3018 RMK A01 T02650144  RH  047%=      5-min Rain = 0
KEA1 071521Z 15008KT 26/15 A3018 RMK A01 T02640145  RH  048%=      5-min Rain = 0
KEA1 071522Z 12006KT 26/15 A3018 RMK A01 T02640146  RH  048%=      5-min Rain = 0
KEA1 071523Z 11004KT 26/15 A3018 RMK A01 T02640148  RH  049%=      5-min Rain = 0
KEA1 071524Z 10005KT 27/15 A3018 RMK A01 T02650147  RH  048%=      5-min Rain = 0
KEA1 071525Z 11006KT 27/15 A3018 RMK A01 T02670149  RH  048%=      5-min Rain = 0
KEA1 071526Z 13007KT 27/15 A3018 RMK A01 T02680149  RH  048%=      5-min Rain = 0
KEA1 071527Z 15007KT 27/15 A3018 RMK A01 T02680145  RH  047%=      5-min Rain = 0
KEA1 071528Z 15005KT 27/14 A3018 RMK A01 T02670143  RH  046%=      5-min Rain = 0
KEA1 071529Z 17005KT 27/15 A3018 RMK A01 T02660146  RH  048%=      5-min Rain = 0
KEA1 071530Z 18006KT 27/14 A3018 RMK A01 T02680144  RH  047%=      5-min Rain = 0
KEA1 071531Z 16005KT 27/14 A3018 RMK A01 T02690144  RH  046%=      5-min Rain = 0
KEA1 071532Z 17006KT 27/15 A3018 RMK A01 T02700145  RH  046%=      5-min Rain = 0
KEA1 071533Z 17008KT 27/15 A3018 RMK A01 T02710145  RH  046%=      5-min Rain = 0
KEA1 071534Z 14007KT 27/15 A3018 RMK A01 T02740148  RH  046%=      5-min Rain = 0
KEA1 071535Z 17007KT 28/14 A3018 RMK A01 T02760144  RH  044%=      5-min Rain = 0
KEA1 071536Z 17007KT 28/14 A3018 RMK A01 T02750143  RH  044%=      5-min Rain = 0
KEA1 071537Z 16007KT 27/14 A3018 RMK A01 T02730144  RH  045%=      5-min Rain = 0
KEA1 071538Z 17008KT 27/15 A3018 RMK A01 T02740145  RH  045%=      5-min Rain = 0
KEA1 071539Z 16005KT 27/15 A3018 RMK A01 T02740145  RH  045%=      5-min Rain = 0
KEA1 071540Z 15005KT 27/15 A3018 RMK A01 T02740145  RH  045%=      5-min Rain = 0
KEA1 071541Z 16005KT 27/15 A3018 RMK A01 T02740145  RH  045%=      5-min Rain = 0
KEA1 071542Z 12008KT 28/15 A3018 RMK A01 T02750147  RH  045%=      5-min Rain = 0
KEA1 071543Z 13004KT 28/15 A3018 RMK A01 T02770146  RH  045%=      5-min Rain = 0
KEA1 071544Z 14005KT 28/14 A3018 RMK A01 T02770144  RH  044%=      5-min Rain = 0
KEA1 071545Z 11006KT 28/14 A3019 RMK A01 T02760144  RH  044%=      5-min Rain = 0
KEA1 071546Z 11006KT 27/15 A3019 RMK A01 T02740145  RH  045%=      5-min Rain = 0
KEA1 071547Z 11005KT 28/15 A3019 RMK A01 T02750145  RH  045%=      5-min Rain = 0
KEA1 071548Z 14008KT 28/15 A3019 RMK A01 T02760145  RH  045%=      5-min Rain = 0
KEA1 071549Z 14008KT 28/14 A3019 RMK A01 T02760143  RH  044%=      5-min Rain = 0
KEA1 071550Z 14007KT 28/14 A3019 RMK A01 T02760144  RH  044%=      5-min Rain = 0
KEA1 071551Z 15004G9KT 28/14 A3019 RMK A01 T02750141  RH  044%=      5-min Rain = 0
KEA1 071552Z 13007KT 27/14 A3019 RMK A01 T02740143  RH  044%=      5-min Rain = 0
KEA1 071553Z 14006KT 27/14 A3019 RMK A01 T02730141  RH  044%=      5-min Rain = 0
KEA1 071554Z 14005KT 27/14 A3019 RMK A01 T02730142  RH  045%=      5-min Rain = 0
KEA1 071555Z 14003KT 27/14 A3019 RMK A01 T02730142  RH  045%=      5-min Rain = 0
KEA1 071556Z 12002KT 27/14 A3018 RMK A01 T02740144  RH  045%=      5-min Rain = 0
KEA1 071557Z 16007KT 28/15 A3018 RMK A01 T02760145  RH  045%=      5-min Rain = 0
KEA1 071558Z 17006KT 28/14 A3018 RMK A01 T02780144  RH  044%=      5-min Rain = 0
KEA1 071559Z 14005KT 28/14 A3018 RMK A01 T02790143  RH  043%=      5-min Rain = 0
KEA1 071600Z 10004KT 28/15 A3018 RMK A01 T02800146  RH  044%=      5-min Rain = 0
KEA1 071601Z 13007KT 28/14 A3018 RMK A01 T02800143  RH  043%=      5-min Rain = 0
KEA1 071602Z 13007KT 28/14 A3018 RMK A01 T02790144  RH  044%=      5-min Rain = 0
KEA1 071603Z 12007KT 28/15 A3018 RMK A01 T02790146  RH  044%=      5-min Rain = 0
KEA1 071604Z 12007KT 28/14 A3018 RMK A01 T02810144  RH  043%=      5-min Rain = 0
KEA1 071605Z 13008KT 28/15 A3018 RMK A01 T02820145  RH  043%=      5-min Rain = 0
KEA1 071606Z 12007KT 28/14 A3018 RMK A01 T02830143  RH  042%=      5-min Rain = 0
KEA1 071607Z 15006KT 28/14 A3018 RMK A01 T02810142  RH  043%=      5-min Rain = 0
KEA1 071608Z 11005KT 28/15 A3018 RMK A01 T02800149  RH  045%=      5-min Rain = 0
KEA1 071609Z 13004KT 28/14 A3018 RMK A01 T02840142  RH  042%=      5-min Rain = 0
KEA1 071610Z 13004KT 28/15 A3018 RMK A01 T02830149  RH  044%=      5-min Rain = 0
KEA1 071611Z 14004KT 28/15 A3018 RMK A01 T02830145  RH  043%=      5-min Rain = 0
KEA1 071612Z 14009KT 29/15 A3018 RMK A01 T02850146  RH  043%=      5-min Rain = 0
KEA1 071613Z 14006KT 29/15 A3018 RMK A01 T02860147  RH  043%=      5-min Rain = 0
KEA1 071614Z 13006KT 29/14 A3018 RMK A01 T02860144  RH  042%=      5-min Rain = 0
KEA1 071615Z 13003KT 28/15 A3018 RMK A01 T02840146  RH  043%=      5-min Rain = 0
KEA1 071616Z 12007KT 29/15 A3018 RMK A01 T02850147  RH  043%=      5-min Rain = 0
KEA1 071617Z 12009KT 29/14 A3018 RMK A01 T02880144  RH  042%=      5-min Rain = 0
KEA1 071618Z 13007KT 29/14 A3018 RMK A01 T02860143  RH  041%=      5-min Rain = 0
KEA1 071619Z 14005KT 29/15 A3018 RMK A01 T02850147  RH  043%=      5-min Rain = 0
KEA1 071620Z 13006KT 29/15 A3018 RMK A01 T02890147  RH  042%=      5-min Rain = 0
KEA1 071621Z 13010KT 29/15 A3018 RMK A01 T02920145  RH  041%=      5-min Rain = 0
KEA1 071622Z 14008KT 29/14 A3018 RMK A01 T02920140  RH  039%=      5-min Rain = 0
KEA1 071623Z 16008KT 29/14 A3018 RMK A01 T02910142  RH  040%=      5-min Rain = 0
KEA1 071624Z 15010KT 29/14 A3018 RMK A01 T02900143  RH  041%=      5-min Rain = 0
KEA1 071625Z 15007KT 29/14 A3018 RMK A01 T02890139  RH  040%=      5-min Rain = 0
KEA1 071626Z 16007KT 29/14 A3018 RMK A01 T02880140  RH  040%=      5-min Rain = 0
KEA1 071627Z 16009KT 29/14 A3017 RMK A01 T02870143  RH  041%=      5-min Rain = 0
KEA1 071628Z 18009KT 29/14 A3017 RMK A01 T02860143  RH  042%=      5-min Rain = 0
KEA1 071629Z 18008KT 29/14 A3017 RMK A01 T02870144  RH  042%=      5-min Rain = 0
KEA1 071630Z 17008KT 29/14 A3017 RMK A01 T02860144  RH  042%=      5-min Rain = 0
KEA1 071631Z 15011KT 29/14 A3017 RMK A01 T02850142  RH  041%=      5-min Rain = 0
KEA1 071632Z 16010KT 29/14 A3017 RMK A01 T02860143  RH  042%=      5-min Rain = 0
KEA1 071633Z 17009KT 29/14 A3017 RMK A01 T02880143  RH  041%=      5-min Rain = 0
KEA1 071634Z 16008KT 29/14 A3017 RMK A01 T02880144  RH  041%=      5-min Rain = 0
KEA1 071635Z 15010KT 29/14 A3017 RMK A01 T02880143  RH  041%=      5-min Rain = 0
KEA1 071636Z 16008KT 29/14 A3017 RMK A01 T02890143  RH  041%=      5-min Rain = 0
KEA1 071637Z 14010KT 29/14 A3017 RMK A01 T02900143  RH  041%=      5-min Rain = 0
KEA1 071638Z 13012KT 29/15 A3017 RMK A01 T02920146  RH  041%=      5-min Rain = 0
KEA1 071639Z 14008G13KT 29/15 A3017 RMK A01 T02920146  RH  041%=      5-min Rain = 0
KEA1 071640Z 13011KT 29/15 A3017 RMK A01 T02930147  RH  041%=      5-min Rain = 0
KEA1 071641Z 12009KT 29/14 A3017 RMK A01 T02930144  RH  040%=      5-min Rain = 0
KEA1 071642Z 12009KT 29/15 A3017 RMK A01 T02930145  RH  041%=      5-min Rain = 0
KEA1 071643Z 13008KT 29/14 A3017 RMK A01 T02920144  RH  041%=      5-min Rain = 0
KEA1 071644Z 13011KT 29/15 A3017 RMK A01 T02910145  RH  041%=      5-min Rain = 0
KEA1 071645Z 14007KT 29/14 A3017 RMK A01 T02910144  RH  041%=      5-min Rain = 0
KEA1 071646Z 13005KT 29/14 A3017 RMK A01 T02920143  RH  040%=      5-min Rain = 0
KEA1 071647Z 15005KT 29/15 A3017 RMK A01 T02930146  RH  041%=      5-min Rain = 0
KEA1 071648Z 15008KT 29/15 A3017 RMK A01 T02920146  RH  041%=      5-min Rain = 0
KEA1 071649Z 15008KT 29/15 A3017 RMK A01 T02910146  RH  041%=      5-min Rain = 0
KEA1 071650Z 16009KT 29/15 A3017 RMK A01 T02890146  RH  042%=      5-min Rain = 0
KEA1 071651Z 16009KT 29/15 A3017 RMK A01 T02880145  RH  042%=      5-min Rain = 0
KEA1 071652Z 15010KT 29/14 A3017 RMK A01 T02880144  RH  041%=      5-min Rain = 0
KEA1 071653Z 13007KT 29/14 A3017 RMK A01 T02890143  RH  041%=      5-min Rain = 0
KEA1 071654Z 14010KT 29/15 A3017 RMK A01 T02890146  RH  042%=      5-min Rain = 0
KEA1 071655Z 14011KT 29/15 A3017 RMK A01 T02920145  RH  041%=      5-min Rain = 0
KEA1 071656Z 12007KT 29/14 A3017 RMK A01 T02920144  RH  040%=      5-min Rain = 0
KEA1 071657Z 16009KT 29/15 A3017 RMK A01 T02930146  RH  041%=      5-min Rain = 0
KEA1 071658Z 17011KT 29/14 A3017 RMK A01 T02920144  RH  040%=      5-min Rain = 0
KEA1 071659Z 16010KT 29/15 A3017 RMK A01 T02920147  RH  041%=      5-min Rain = 0
KEA1 071700Z 14009KT 29/15 A3017 RMK A01 T02940146  RH  040%=      5-min Rain = 0
KEA1 071701Z 14009KT 29/15 A3017 RMK A01 T02940146  RH  040%=      5-min Rain = 0
KEA1 071702Z 16009G14KT 30/15 A3016 RMK A01 T02950146  RH  040%=      5-min Rain = 0
KEA1 071703Z 12007G15KT 30/15 A3017 RMK A01 T02970149  RH  041%=      5-min Rain = 0
KEA1 071704Z 12006KT 30/15 A3016 RMK A01 T03020148  RH  039%=      5-min Rain = 0
KEA1 071705Z 13008KT 30/15 A3016 RMK A01 T03040151  RH  039%=      5-min Rain = 0
KEA1 071706Z 14011KT 31/15 A3016 RMK A01 T03060148  RH  038%=      5-min Rain = 0
KEA1 071707Z 14009KT 30/15 A3016 RMK A01 T03030146  RH  038%=      5-min Rain = 0
KEA1 071708Z 14009KT 30/15 A3016 RMK A01 T03000150  RH  040%=      5-min Rain = 0
KEA1 071709Z 13007KT 30/15 A3016 RMK A01 T03020150  RH  040%=      5-min Rain = 0
KEA1 071710Z 14010KT 31/15 A3016 RMK A01 T03050147  RH  038%=      5-min Rain = 0
KEA1 071711Z 15011KT 31/15 A3016 RMK A01 T03050145  RH  038%=      5-min Rain = 0
KEA1 071712Z 15010KT 31/14 A3016 RMK A01 T03060144  RH  037%=      5-min Rain = 0
KEA1 071713Z 15008KT 31/14 A3016 RMK A01 T03050141  RH  037%=      5-min Rain = 0
KEA1 071714Z 16007KT 30/14 A3016 RMK A01 T03020141  RH  037%=      5-min Rain = 0
KEA1 071715Z 14009KT 30/15 A3016 RMK A01 T03010145  RH  039%=      5-min Rain = 0
KEA1 071716Z 14007KT 30/14 A3016 RMK A01 T03010142  RH  038%=      5-min Rain = 0
KEA1 071717Z 13003KT 30/14 A3016 RMK A01 T02990142  RH  038%=      5-min Rain = 0
KEA1 071718Z 14003G14KT 30/15 A3016 RMK A01 T02980145  RH  039%=      5-min Rain = 0
KEA1 071719Z 13010KT 30/14 A3016 RMK A01 T03000144  RH  039%=      5-min Rain = 0
KEA1 071720Z 14010KT 30/14 A3016 RMK A01 T03030144  RH  038%=      5-min Rain = 0
KEA1 071721Z 13009KT 31/14 A3016 RMK A01 T03060144  RH  037%=      5-min Rain = 0
KEA1 071722Z 14007KT 31/14 A3016 RMK A01 T03070142  RH  037%=      5-min Rain = 0
KEA1 071723Z 12004KT 31/14 A3016 RMK A01 T03050142  RH  037%=      5-min Rain = 0
KEA1 071724Z 16005KT 30/14 A3016 RMK A01 T03040144  RH  038%=      5-min Rain = 0
KEA1 071725Z 17008KT 30/14 A3016 RMK A01 T03040144  RH  038%=      5-min Rain = 0
KEA1 071726Z 14010G16KT 30/15 A3016 RMK A01 T03040147  RH  038%=      5-min Rain = 0
KEA1 071727Z 12006KT 31/15 A3016 RMK A01 T03070147  RH  038%=      5-min Rain = 0
KEA1 071728Z 10006KT 31/15 A3016 RMK A01 T03100152  RH  038%=      5-min Rain = 0
KEA1 071729Z 12011KT 32/15 A3016 RMK A01 T03150151  RH  037%=      5-min Rain = 0
KEA1 071730Z 12011KT 32/15 A3016 RMK A01 T03150145  RH  036%=      5-min Rain = 0
KEA1 071731Z 12008G13KT 31/15 A3016 RMK A01 T03110147  RH  037%=      5-min Rain = 0
KEA1 071732Z 12007G12KT 31/14 A3016 RMK A01 T03100144  RH  036%=      5-min Rain = 0
KEA1 071733Z 13007G12KT 31/15 A3016 RMK A01 T03090146  RH  037%=      5-min Rain = 0
KEA1 071734Z 14011KT 31/15 A3016 RMK A01 T03090145  RH  037%=      5-min Rain = 0
KEA1 071735Z 13011KT 31/14 A3016 RMK A01 T03090143  RH  037%=      5-min Rain = 0
KEA1 071736Z 13011KT 31/14 A3015 RMK A01 T03070142  RH  037%=      5-min Rain = 0
KEA1 071737Z 12009KT 30/14 A3016 RMK A01 T03040144  RH  038%=      5-min Rain = 0
KEA1 071738Z 11008KT 31/14 A3016 RMK A01 T03050144  RH  038%=      5-min Rain = 0
KEA1 071739Z 14004KT 31/14 A3015 RMK A01 T03060142  RH  037%=      5-min Rain = 0
KEA1 071740Z 13009KT 31/15 A3015 RMK A01 T03050145  RH  038%=      5-min Rain = 0
KEA1 071741Z 12011KT 31/14 A3015 RMK A01 T03060144  RH  037%=      5-min Rain = 0
KEA1 071742Z 12011KT 31/14 A3015 RMK A01 T03060140  RH  036%=      5-min Rain = 0
KEA1 071743Z 13010KT 30/14 A3015 RMK A01 T03030142  RH  037%=      5-min Rain = 0
KEA1 071744Z 13008KT 30/14 A3015 RMK A01 T03020140  RH  037%=      5-min Rain = 0
KEA1 071745Z 12009KT 30/14 A3015 RMK A01 T03020141  RH  037%=      5-min Rain = 0
KEA1 071746Z 13011KT 30/14 A3015 RMK A01 T03030143  RH  038%=      5-min Rain = 0
KEA1 071747Z 13012KT 30/14 A3015 RMK A01 T03040141  RH  037%=      5-min Rain = 0
KEA1 071748Z 13009KT 30/14 A3015 RMK A01 T03020141  RH  037%=      5-min Rain = 0
KEA1 071749Z 13007KT 30/14 A3015 RMK A01 T03000141  RH  038%=      5-min Rain = 0
KEA1 071750Z 15008KT 30/14 A3015 RMK A01 T03000144  RH  039%=      5-min Rain = 0
KEA1 071751Z 13009KT 30/14 A3015 RMK A01 T03010142  RH  038%=      5-min Rain = 0
KEA1 071752Z 13007KT 30/14 A3015 RMK A01 T03010144  RH  038%=      5-min Rain = 0
KEA1 071753Z 13007KT 30/14 A3015 RMK A01 T03020143  RH  038%=      5-min Rain = 0
KEA1 071754Z 14006G11KT 30/14 A3015 RMK A01 T03030143  RH  038%=      5-min Rain = 0
KEA1 071755Z 15007KT 30/14 A3015 RMK A01 T03030144  RH  038%=      5-min Rain = 0
KEA1 071756Z 15010KT 31/15 A3015 RMK A01 T03050146  RH  038%=      5-min Rain = 0
KEA1 071757Z 16008KT 31/14 A3015 RMK A01 T03070144  RH  037%=      5-min Rain = 0
KEA1 071758Z 14010KT 31/15 A3014 RMK A01 T03090148  RH  038%=      5-min Rain = 0
KEA1 071759Z 15011KT 32/15 A3014 RMK A01 T03150146  RH  036%=      5-min Rain = 0
KEA1 071800Z 15012KT 32/14 A3014 RMK A01 T03180142  RH  034%=      5-min Rain = 0
KEA1 071801Z 17012KT 32/14 A3014 RMK A01 T03190143  RH  034%=      5-min Rain = 0
KEA1 071802Z 18009KT 32/14 A3014 RMK A01 T03200140  RH  034%=      5-min Rain = 0
KEA1 071803Z 19008KT 32/14 A3014 RMK A01 T03170141  RH  035%=      5-min Rain = 0
KEA1 071804Z 16010KT 32/14 A3014 RMK A01 T03150142  RH  035%=      5-min Rain = 0
KEA1 071805Z 12011G16KT 32/14 A3014 RMK A01 T03160142  RH  035%=      5-min Rain = 0
KEA1 071806Z 15014G23KT 32/14 A3014 RMK A01 T03180144  RH  035%=      5-min Rain = 0
KEA1 071807Z 15012KT 32/14 A3014 RMK A01 T03210142  RH  034%=      5-min Rain = 0
KEA1 071808Z 13009KT 32/14 A3014 RMK A01 T03190142  RH  034%=      5-min Rain = 0
KEA1 071809Z 16008KT 32/14 A3014 RMK A01 T03190144  RH  035%=      5-min Rain = 0
KEA1 071810Z 19005KT 32/14 A3014 RMK A01 T03220143  RH  034%=      5-min Rain = 0
KEA1 071811Z 19003KT 32/15 A3014 RMK A01 T03210148  RH  035%=      5-min Rain = 0
KEA1 071812Z 18005G10KT 32/14 A3014 RMK A01 T03210142  RH  034%=      5-min Rain = 0
KEA1 071813Z 13011KT 32/14 A3014 RMK A01 T03170144  RH  035%=      5-min Rain = 0
KEA1 071814Z 13011KT 32/14 A3014 RMK A01 T03170142  RH  035%=      5-min Rain = 0
KEA1 071815Z 15010G15KT 32/14 A3014 RMK A01 T03180143  RH  035%=      5-min Rain = 0
KEA1 071816Z 15008KT 32/14 A3014 RMK A01 T03160140  RH  034%=      5-min Rain = 0
KEA1 071817Z 12004KT 31/14 A3014 RMK A01 T03130141  RH  035%=      5-min Rain = 0
KEA1 071818Z 11004KT 31/14 A3014 RMK A01 T03120140  RH  035%=      5-min Rain = 0
KEA1 071819Z 15013G26KT 31/14 A3014 RMK A01 T03110144  RH  036%=      5-min Rain = 0
KEA1 071820Z 18009KT 31/14 A3014 RMK A01 T03140142  RH  035%=      5-min Rain = 0
KEA1 071821Z 16011G17KT 32/15 A3014 RMK A01 T03150145  RH  036%=      5-min Rain = 0
KEA1 071822Z 13008KT 32/14 A3014 RMK A01 T03170144  RH  035%=      5-min Rain = 0
KEA1 071823Z 16010KT 32/15 A3014 RMK A01 T03170145  RH  035%=      5-min Rain = 0
KEA1 071824Z 16015KT 32/14 A3014 RMK A01 T03170142  RH  035%=      5-min Rain = 0
KEA1 071825Z 17014KT 32/14 A3014 RMK A01 T03170142  RH  035%=      5-min Rain = 0
KEA1 071826Z 18011KT 32/14 A3013 RMK A01 T03170142  RH  035%=      5-min Rain = 0
KEA1 071827Z 20007KT 32/14 A3013 RMK A01 T03150141  RH  035%=      5-min Rain = 0
KEA1 071828Z 21007KT 31/14 A3013 RMK A01 T03130140  RH  035%=      5-min Rain = 0
KEA1 071829Z 18005KT 31/14 A3013 RMK A01 T03110141  RH  036%=      5-min Rain = 0
KEA1 071830Z 15012G18KT 31/14 A3013 RMK A01 T03140143  RH  035%=      5-min Rain = 0
KEA1 071831Z 13010KT 32/14 A3014 RMK A01 T03210140  RH  033%=      5-min Rain = 0
KEA1 071832Z 15014KT 33/14 A3014 RMK A01 T03250144  RH  034%=      5-min Rain = 0
KEA1 071833Z 15011KT 32/14 A3014 RMK A01 T03240141  RH  033%=      5-min Rain = 0
KEA1 071834Z 16008KT 32/14 A3014 RMK A01 T03190140  RH  034%=      5-min Rain = 0
KEA1 071835Z 16008KT 32/14 A3013 RMK A01 T03170142  RH  035%=      5-min Rain = 0
KEA1 071836Z 20007KT 32/14 A3013 RMK A01 T03190144  RH  035%=      5-min Rain = 0
KEA1 071837Z 16009KT 32/14 A3013 RMK A01 T03200143  RH  034%=      5-min Rain = 0
KEA1 071838Z 15011KT 32/14 A3013 RMK A01 T03190144  RH  035%=      5-min Rain = 0
KEA1 071839Z 13007KT 32/15 A3013 RMK A01 T03210145  RH  035%=      5-min Rain = 0
KEA1 071840Z 14011KT 32/14 A3013 RMK A01 T03240144  RH  034%=      5-min Rain = 0
KEA1 071841Z 14013KT 33/14 A3013 RMK A01 T03250136  RH  032%=      5-min Rain = 0
KEA1 071842Z 14014G19KT 33/13 A3013 RMK A01 T03250133  RH  031%=      5-min Rain = 0
KEA1 071843Z 14016KT 33/14 A3013 RMK A01 T03250136  RH  032%=      5-min Rain = 0
KEA1 071844Z 13012KT 32/14 A3013 RMK A01 T03200135  RH  032%=      5-min Rain = 0
KEA1 071845Z 14013KT 32/14 A3013 RMK A01 T03180136  RH  033%=      5-min Rain = 0
KEA1 071846Z 14011KT 32/14 A3013 RMK A01 T03180135  RH  033%=      5-min Rain = 0
KEA1 071847Z 13009G15KT 32/14 A3013 RMK A01 T03170139  RH  034%=      5-min Rain = 0
KEA1 071848Z 14012G17KT 32/14 A3013 RMK A01 T03200140  RH  033%=      5-min Rain = 0
KEA1 071849Z 15010KT 33/14 A3013 RMK A01 T03260143  RH  033%=      5-min Rain = 0
KEA1 071850Z 15012KT 33/14 A3013 RMK A01 T03280141  RH  032%=      5-min Rain = 0
KEA1 071851Z 16010KT 33/14 A3013 RMK A01 T03290140  RH  032%=      5-min Rain = 0
KEA1 071852Z 16008KT 33/14 A3013 RMK A01 T03250138  RH  032%=      5-min Rain = 0
KEA1 071853Z 17009G14KT 32/14 A3013 RMK A01 T03230143  RH  034%=      5-min Rain = 0
KEA1 071854Z 13011KT 33/14 A3013 RMK A01 T03280140  RH  032%=      5-min Rain = 0
KEA1 071855Z 14010KT 33/14 A3013 RMK A01 T03260139  RH  032%=      5-min Rain = 0
KEA1 071856Z 15008KT 33/14 A3013 RMK A01 T03250142  RH  033%=      5-min Rain = 0
KEA1 071857Z 14009KT 33/14 A3013 RMK A01 T03270140  RH  032%=      5-min Rain = 0
KEA1 071858Z 13014KT 33/14 A3013 RMK A01 T03280137  RH  031%=      5-min Rain = 0
KEA1 071859Z 15010KT 33/13 A3013 RMK A01 T03270130  RH  030%=      5-min Rain = 0
KEA1 071900Z 14013G18KT 33/13 A3012 RMK A01 T03300128  RH  029%=      5-min Rain = 0
KEA1 071901Z 12015KT 33/13 A3012 RMK A01 T03330129  RH  029%=      5-min Rain = 0
KEA1 071902Z 12011KT 33/13 A3013 RMK A01 T03320131  RH  030%=      5-min Rain = 0
KEA1 071903Z 11012KT 33/13 A3012 RMK A01 T03320134  RH  030%=      5-min Rain = 0
KEA1 071904Z 11007KT 33/14 A3012 RMK A01 T03330136  RH  031%=      5-min Rain = 0
KEA1 071905Z 11004KT 33/13 A3012 RMK A01 T03330134  RH  030%=      5-min Rain = 0
KEA1 071906Z 11005KT 33/14 A3012 RMK A01 T03320137  RH  031%=      5-min Rain = 0
KEA1 071907Z 13011G16KT 33/13 A3012 RMK A01 T03300131  RH  030%=      5-min Rain = 0
KEA1 071908Z 13008KT 33/13 A3012 RMK A01 T03250127  RH  030%=      5-min Rain = 0
KEA1 071909Z 17015KT 32/13 A3012 RMK A01 T03210128  RH  031%=      5-min Rain = 0
KEA1 071910Z 16011KT 32/13 A3012 RMK A01 T03180125  RH  031%=      5-min Rain = 0
KEA1 071911Z 15007KT 32/13 A3012 RMK A01 T03160125  RH  031%=      5-min Rain = 0
KEA1 071912Z 17008KT 31/13 A3012 RMK A01 T03140128  RH  032%=      5-min Rain = 0
KEA1 071913Z 16008KT 31/13 A3012 RMK A01 T03130128  RH  032%=      5-min Rain = 0
KEA1 071914Z 16010KT 31/13 A3012 RMK A01 T03140131  RH  033%=      5-min Rain = 0
KEA1 071915Z 15006KT 32/13 A3012 RMK A01 T03160132  RH  032%=      5-min Rain = 0
KEA1 071916Z 15008G13KT 32/13 A3012 RMK A01 T03180132  RH  032%=      5-min Rain = 0
KEA1 071917Z 16012KT 32/13 A3012 RMK A01 T03190133  RH  032%=      5-min Rain = 0
KEA1 071918Z 18011G17KT 32/13 A3012 RMK A01 T03190133  RH  032%=      5-min Rain = 0
KEA1 071919Z 15016G22KT 32/13 A3011 RMK A01 T03190132  RH  032%=      5-min Rain = 0
KEA1 071920Z 15012KT 32/13 A3012 RMK A01 T03190131  RH  032%=      5-min Rain = 0
KEA1 071921Z 15014KT 32/13 A3012 RMK A01 T03190133  RH  032%=      5-min Rain = 0
KEA1 071922Z 14010KT 32/13 A3012 RMK A01 T03190133  RH  032%=      5-min Rain = 0
KEA1 071923Z 17010KT 32/14 A3011 RMK A01 T03220136  RH  032%=      5-min Rain = 0
KEA1 071924Z 19009KT 32/14 A3011 RMK A01 T03240135  RH  032%=      5-min Rain = 0
KEA1 071925Z 18008KT 32/13 A3011 RMK A01 T03210134  RH  032%=      5-min Rain = 0
KEA1 071926Z 19007KT 32/14 A3011 RMK A01 T03200137  RH  033%=      5-min Rain = 0
KEA1 071927Z 18005KT 32/14 A3011 RMK A01 T03230140  RH  033%=      5-min Rain = 0
KEA1 071928Z 16011KT 33/14 A3011 RMK A01 T03280138  RH  032%=      5-min Rain = 0
KEA1 071929Z 15005KT 33/13 A3011 RMK A01 T03270134  RH  031%=      5-min Rain = 0
KEA1 071930Z 13009G15KT 33/14 A3011 RMK A01 T03260135  RH  031%=      5-min Rain = 0
KEA1 071931Z 13014KT 33/14 A3011 RMK A01 T03270136  RH  031%=      5-min Rain = 0
KEA1 071932Z 16013KT 33/14 A3011 RMK A01 T03270136  RH  031%=      5-min Rain = 0
KEA1 071933Z 18010KT 33/14 A3011 RMK A01 T03310138  RH  031%=      5-min Rain = 0
KEA1 071934Z 18008KT 33/14 A3011 RMK A01 T03320136  RH  031%=      5-min Rain = 0
KEA1 071935Z 15013G18KT 33/14 A3011 RMK A01 T03320139  RH  031%=      5-min Rain = 0
KEA1 071936Z 15012KT 34/14 A3011 RMK A01 T03360138  RH  030%=      5-min Rain = 0
KEA1 071937Z 16010KT 34/13 A3011 RMK A01 T03380134  RH  029%=      5-min Rain = 0
KEA1 071938Z 17012G18KT 34/14 A301 RMK A01 T03350135  RH  030%=      5-min Rain = 0
KEA1 071939Z 19015KT 33/13 A301 RMK A01 T03330133  RH  030%=      5-min Rain = 0
KEA1 071940Z 19012G18KT 33/13 A301 RMK A01 T03300131  RH  030%=      5-min Rain = 0
KEA1 071941Z 19014KT 33/13 A301 RMK A01 T03310133  RH  030%=      5-min Rain = 0
KEA1 071942Z 18012KT 34/13 A301 RMK A01 T03360134  RH  029%=      5-min Rain = 0
KEA1 071943Z 16014KT 34/14 A301 RMK A01 T03350135  RH  030%=      5-min Rain = 0
KEA1 071944Z 18017KT 33/13 A301 RMK A01 T03310133  RH  030%=      5-min Rain = 0
KEA1 071945Z 18011KT 32/13 A301 RMK A01 T03230130  RH  031%=      5-min Rain = 0
KEA1 071946Z 18007KT 32/13 A301 RMK A01 T03190130  RH  032%=      5-min Rain = 0
KEA1 071947Z 17007KT 32/13 A301 RMK A01 T03170131  RH  032%=      5-min Rain = 0
KEA1 071948Z 16007KT 32/13 A301 RMK A01 T03170131  RH  032%=      5-min Rain = 0
KEA1 071949Z 17011KT 32/13 A301 RMK A01 T03160131  RH  032%=      5-min Rain = 0
KEA1 071950Z 18009KT 32/13 A301 RMK A01 T03170131  RH  032%=      5-min Rain = 0
KEA1 071951Z 19009KT 32/13 A301 RMK A01 T03160132  RH  033%=      5-min Rain = 0
KEA1 071952Z 20010G15KT 31/13 A301 RMK A01 T03140133  RH  033%=      5-min Rain = 0
KEA1 071953Z 19010KT 31/13 A301 RMK A01 T03120131  RH  033%=      5-min Rain = 0
KEA1 071954Z 18013KT 31/13 A301 RMK A01 T03120131  RH  033%=      5-min Rain = 0
KEA1 071955Z 18013KT 31/13 A301 RMK A01 T03130130  RH  033%=      5-min Rain = 0
KEA1 071956Z 18012KT 31/13 A301 RMK A01 T03140133  RH  033%=      5-min Rain = 0
KEA1 071957Z 18012KT 31/13 A301 RMK A01 T03140132  RH  033%=      5-min Rain = 0
KEA1 071958Z 19010KT 31/13 A301 RMK A01 T03140134  RH  033%=      5-min Rain = 0
KEA1 071959Z 19011KT 32/13 A301 RMK A01 T03150134  RH  033%=      5-min Rain = 0
KEA1 072000Z 18011G16KT 32/14 A301 RMK A01 T03190141  RH  034%=      5-min Rain = 0
KEA1 072001Z 20011KT 33/14 A301 RMK A01 T03270139  RH  032%=      5-min Rain = 0
KEA1 072002Z 20011KT 33/14 A301 RMK A01 T03270136  RH  032%=      5-min Rain = 0
KEA1 072003Z 20010KT 33/14 A301 RMK A01 T03250135  RH  032%=      5-min Rain = 0
KEA1 072004Z 19009KT 33/14 A301 RMK A01 T03250136  RH  032%=      5-min Rain = 0
KEA1 072005Z 20010KT 33/13 A3009 RMK A01 T03280134  RH  031%=      5-min Rain = 0
KEA1 072006Z 19013KT 33/13 A3009 RMK A01 T03290134  RH  031%=      5-min Rain = 0
KEA1 072007Z 21013KT 33/13 A3009 RMK A01 T03300133  RH  030%=      5-min Rain = 0
KEA1 072008Z 18013KT 33/14 A3009 RMK A01 T03310135  RH  031%=      5-min Rain = 0
KEA1 072009Z 17012KT 34/14 A3009 RMK A01 T03350136  RH  030%=      5-min Rain = 0
KEA1 072010Z 16013KT 34/14 A3009 RMK A01 T03360135  RH  030%=      5-min Rain = 0
KEA1 072011Z 19009G15KT 33/13 A3009 RMK A01 T03340132  RH  029%=      5-min Rain = 0
KEA1 072012Z 18005KT 33/13 A3009 RMK A01 T03300131  RH  030%=      5-min Rain = 0
KEA1 072013Z 18008KT 33/13 A3009 RMK A01 T03280130  RH  030%=      5-min Rain = 0
KEA1 072014Z 19009KT 33/13 A3009 RMK A01 T03310129  RH  029%=      5-min Rain = 0
KEA1 072015Z 19008KT 33/13 A3009 RMK A01 T03310126  RH  029%=      5-min Rain = 0
KEA1 072016Z 19009G17KT 33/13 A3009 RMK A01 T03300130  RH  030%=      5-min Rain = 0
KEA1 072017Z 15010G15KT 34/13 A3009 RMK A01 T03360134  RH  030%=      5-min Rain = 0
KEA1 072018Z 16008KT 34/14 A3009 RMK A01 T03400136  RH  029%=      5-min Rain = 0
KEA1 072019Z 13008KT 34/13 A3009 RMK A01 T03420134  RH  029%=      5-min Rain = 0
KEA1 072020Z 13009KT 34/13 A3009 RMK A01 T03410129  RH  028%=      5-min Rain = 0
KEA1 072021Z 17009KT 34/13 A3009 RMK A01 T03380132  RH  029%=      5-min Rain = 0
KEA1 072022Z 17011KT 34/14 A3009 RMK A01 T03410136  RH  029%=      5-min Rain = 0
KEA1 072023Z 18014KT 34/13 A3009 RMK A01 T03430132  RH  028%=      5-min Rain = 0
KEA1 072024Z 18010KT 34/13 A3009 RMK A01 T03380130  RH  028%=      5-min Rain = 0
KEA1 072025Z 19011KT 34/13 A3009 RMK A01 T03350131  RH  029%=      5-min Rain = 0
KEA1 072026Z 19006KT 33/13 A3009 RMK A01 T03310128  RH  029%=      5-min Rain = 0
KEA1 072027Z 19011G16KT 33/13 A3009 RMK A01 T03310132  RH  030%=      5-min Rain = 0
KEA1 072028Z 19013KT 33/13 A3009 RMK A01 T03330133  RH  030%=      5-min Rain = 0
KEA1 072029Z 20012G17KT 34/13 A3008 RMK A01 T03350131  RH  029%=      5-min Rain = 0
KEA1 072030Z 17014G20KT 33/13 A3008 RMK A01 T03330130  RH  029%=      5-min Rain = 0
KEA1 072031Z 16015KT 34/13 A3008 RMK A01 T03350126  RH  028%=      5-min Rain = 0
KEA1 072032Z 16015KT 34/13 A3008 RMK A01 T03360127  RH  028%=      5-min Rain = 0
KEA1 072033Z 16012KT 33/13 A3008 RMK A01 T03340128  RH  029%=      5-min Rain = 0
KEA1 072034Z 16014KT 33/13 A3008 RMK A01 T03330128  RH  029%=      5-min Rain = 0
KEA1 072035Z 16010G15KT 33/13 A3008 RMK A01 T03330128  RH  029%=      5-min Rain = 0
KEA1 072036Z 16014KT 34/13 A3008 RMK A01 T03350127  RH  028%=      5-min Rain = 0
KEA1 072037Z 14010KT 34/13 A3008 RMK A01 T03360128  RH  028%=      5-min Rain = 0
KEA1 072038Z 12007KT 34/13 A3008 RMK A01 T03380130  RH  028%=      5-min Rain = 0
KEA1 072039Z 13006KT 34/13 A3008 RMK A01 T03380129  RH  028%=      5-min Rain = 0
KEA1 072040Z 16016KT 34/13 A3008 RMK A01 T03360131  RH  029%=      5-min Rain = 0
KEA1 072041Z 17017KT 34/13 A3008 RMK A01 T03390128  RH  028%=      5-min Rain = 0
KEA1 072042Z 16011KT 34/12 A3008 RMK A01 T03410123  RH  027%=      5-min Rain = 0
KEA1 072043Z 16013KT 34/13 A3008 RMK A01 T03400125  RH  027%=      5-min Rain = 0
KEA1 072044Z 16016KT 34/13 A3007 RMK A01 T03380128  RH  028%=      5-min Rain = 0
KEA1 072045Z 17015KT 33/13 A3007 RMK A01 T03340129  RH  029%=      5-min Rain = 0
KEA1 072046Z 16015KT 33/13 A3008 RMK A01 T03310132  RH  030%=      5-min Rain = 0
KEA1 072047Z 17016KT 33/14 A3007 RMK A01 T03320137  RH  031%=      5-min Rain = 0
KEA1 072048Z 16015KT 34/13 A3007 RMK A01 T03350132  RH  029%=      5-min Rain = 0
KEA1 072049Z 18012KT 34/13 A3007 RMK A01 T03350134  RH  030%=      5-min Rain = 0
KEA1 072050Z 16010KT 34/14 A3007 RMK A01 T03350136  RH  030%=      5-min Rain = 0
KEA1 072051Z 15009KT 34/13 A3007 RMK A01 T03370133  RH  029%=      5-min Rain = 0
KEA1 072052Z 16008KT 34/13 A3007 RMK A01 T03360132  RH  029%=      5-min Rain = 0
KEA1 072053Z 15004KT 34/13 A3007 RMK A01 T03350128  RH  029%=      5-min Rain = 0
KEA1 072054Z 13006G11KT 34/13 A3007 RMK A01 T03350132  RH  029%=      5-min Rain = 0
KEA1 072055Z 16015G22KT 34/14 A3007 RMK A01 T03380136  RH  030%=      5-min Rain = 0
KEA1 072056Z 16017G22KT 34/14 A3007 RMK A01 T03440136  RH  029%=      5-min Rain = 0
KEA1 072057Z 16018KT 34/13 A3007 RMK A01 T03420134  RH  029%=      5-min Rain = 0
KEA1 072058Z 16013KT 34/13 A3007 RMK A01 T03380133  RH  029%=      5-min Rain = 0
KEA1 072059Z 16008KT 34/14 A3007 RMK A01 T03370135  RH  030%=      5-min Rain = 0
KEA1 072100Z 14009KT 34/13 A3007 RMK A01 T03370131  RH  029%=      5-min Rain = 0
KEA1 072101Z 14010KT 34/13 A3007 RMK A01 T03370129  RH  028%=      5-min Rain = 0
KEA1 072102Z 15008KT 34/13 A3007 RMK A01 T03400129  RH  028%=      5-min Rain = 0
KEA1 072103Z 17011KT 34/13 A3007 RMK A01 T03400126  RH  027%=      5-min Rain = 0
KEA1 072104Z 18007KT 34/12 A3007 RMK A01 T03380124  RH  027%=      5-min Rain = 0
KEA1 072105Z 17005KT 33/13 A3007 RMK A01 T03340128  RH  029%=      5-min Rain = 0
KEA1 072106Z 16008G14KT 34/13 A3007 RMK A01 T03350132  RH  029%=      5-min Rain = 0
KEA1 072107Z 15011KT 34/14 A3006 RMK A01 T03390140  RH  030%=      5-min Rain = 0
KEA1 072108Z 12010KT 34/14 A3006 RMK A01 T03420138  RH  029%=      5-min Rain = 0
KEA1 072109Z 16009KT 34/14 A3006 RMK A01 T03410140  RH  030%=      5-min Rain = 0
KEA1 072110Z 17011KT 34/14 A3006 RMK A01 T03410136  RH  029%=      5-min Rain = 0
KEA1 072111Z 18012KT 34/13 A3006 RMK A01 T03420133  RH  028%=      5-min Rain = 0
KEA1 072112Z 19012G18KT 34/13 A3006 RMK A01 T03390129  RH  028%=      5-min Rain = 0
KEA1 072113Z 17013KT 34/13 A3006 RMK A01 T03370129  RH  028%=      5-min Rain = 0
KEA1 072114Z 14008KT 34/13 A3006 RMK A01 T03370129  RH  028%=      5-min Rain = 0
KEA1 072115Z 14011KT 34/14 A3006 RMK A01 T03370135  RH  030%=      5-min Rain = 0
KEA1 072116Z 14014KT 34/13 A3006 RMK A01 T03390134  RH  029%=      5-min Rain = 0
KEA1 072117Z 14010KT 34/13 A3006 RMK A01 T03390128  RH  028%=      5-min Rain = 0
KEA1 072118Z 15009KT 34/13 A3006 RMK A01 T03350128  RH  028%=      5-min Rain = 0
KEA1 072119Z 16012G17KT 33/13 A3006 RMK A01 T03340128  RH  029%=      5-min Rain = 0
KEA1 072120Z 17012KT 33/13 A3006 RMK A01 T03340129  RH  029%=      5-min Rain = 0
KEA1 072121Z 16009KT 34/13 A3006 RMK A01 T03350128  RH  029%=      5-min Rain = 0
KEA1 072122Z 16010KT 34/13 A3006 RMK A01 T03370132  RH  029%=      5-min Rain = 0
KEA1 072123Z 20011KT 34/13 A3006 RMK A01 T03430133  RH  028%=      5-min Rain = 0
KEA1 072124Z 19011KT 34/13 A3006 RMK A01 T03430130  RH  028%=      5-min Rain = 0
KEA1 072125Z 19010KT 34/12 A3006 RMK A01 T03400124  RH  027%=      5-min Rain = 0
KEA1 072126Z 18013KT 34/13 A3006 RMK A01 T03380125  RH  028%=      5-min Rain = 0
KEA1 072127Z 18012KT 34/13 A3006 RMK A01 T03400130  RH  028%=      5-min Rain = 0
KEA1 072128Z 19007KT 34/13 A3006 RMK A01 T03400129  RH  028%=      5-min Rain = 0
KEA1 072129Z 17006KT 34/13 A3006 RMK A01 T03380125  RH  028%=      5-min Rain = 0
KEA1 072130Z 16006KT 34/13 A3006 RMK A01 T03350128  RH  029%=      5-min Rain = 0
KEA1 072131Z 14012KT 34/13 A3006 RMK A01 T03370130  RH  029%=      5-min Rain = 0
KEA1 072132Z 13012KT 34/13 A3006 RMK A01 T03400125  RH  027%=      5-min Rain = 0
KEA1 072133Z 14011KT 34/13 A3006 RMK A01 T03390127  RH  028%=      5-min Rain = 0
KEA1 072134Z 16010KT 34/13 A3005 RMK A01 T03390131  RH  028%=      5-min Rain = 0
KEA1 072135Z 18008KT 34/13 A3005 RMK A01 T03410133  RH  029%=      5-min Rain = 0
KEA1 072136Z 18011KT 34/13 A3005 RMK A01 T03410133  RH  029%=      5-min Rain = 0
KEA1 072137Z 17010KT 34/13 A3005 RMK A01 T03420132  RH  028%=      5-min Rain = 0
KEA1 072138Z 17009KT 35/13 A3005 RMK A01 T03450133  RH  028%=      5-min Rain = 0
KEA1 072139Z 18008KT 34/13 A3005 RMK A01 T03440131  RH  028%=      5-min Rain = 0
KEA1 072140Z 16011G17KT 34/13 A3005 RMK A01 T03430134  RH  028%=      5-min Rain = 0
KEA1 072141Z 16013KT 35/13 A3005 RMK A01 T03450134  RH  028%=      5-min Rain = 0
KEA1 072142Z 17008KT 34/13 A3005 RMK A01 T03420134  RH  029%=      5-min Rain = 0
KEA1 072143Z 15008KT 34/14 A3005 RMK A01 T03420138  RH  029%=      5-min Rain = 0
KEA1 072144Z 15009KT 35/14 A3005 RMK A01 T03450137  RH  029%=      5-min Rain = 0
KEA1 072145Z 18014KT 35/14 A3005 RMK A01 T03490138  RH  028%=      5-min Rain = 0
KEA1 072146Z 18012KT 35/14 A3005 RMK A01 T03480135  RH  028%=      5-min Rain = 0
KEA1 072147Z 18013KT 35/14 A3005 RMK A01 T03460137  RH  028%=      5-min Rain = 0
KEA1 072148Z 18012KT 35/14 A3005 RMK A01 T03470136  RH  028%=      5-min Rain = 0
KEA1 072149Z 17010G16KT 35/14 A3005 RMK A01 T03460137  RH  028%=      5-min Rain = 0
KEA1 072150Z 17015KT 35/14 A3005 RMK A01 T03470138  RH  029%=      5-min Rain = 0
KEA1 072151Z 18015KT 35/14 A3005 RMK A01 T03470137  RH  028%=      5-min Rain = 0
KEA1 072152Z 18012KT 34/13 A3005 RMK A01 T03420134  RH  028%=      5-min Rain = 0
KEA1 072153Z 15013KT 34/14 A3005 RMK A01 T03380136  RH  030%=      5-min Rain = 0
KEA1 072154Z 15012KT 34/13 A3005 RMK A01 T03390134  RH  029%=      5-min Rain = 0
KEA1 072155Z 15010KT 34/13 A3005 RMK A01 T03390134  RH  029%=      5-min Rain = 0
KEA1 072156Z 17010KT 34/14 A3005 RMK A01 T03410136  RH  029%=      5-min Rain = 0
KEA1 072157Z 18012KT 34/14 A3005 RMK A01 T03420136  RH  029%=      5-min Rain = 0
KEA1 072158Z 17006KT 34/14 A3005 RMK A01 T03400136  RH  029%=      5-min Rain = 0
KEA1 072159Z 15010KT 34/14 A3005 RMK A01 T03400139  RH  030%=      5-min Rain = 0
KEA1 072200Z 14011KT 34/14 A3005 RMK A01 T03420138  RH  029%=      5-min Rain = 0
KEA1 072201Z 15007G12KT 34/14 A3005 RMK A01 T03420137  RH  029%=      5-min Rain = 0
KEA1 072202Z 15003KT 34/14 A3005 RMK A01 T03400135  RH  029%=      5-min Rain = 0
KEA1 072203Z 12008KT 34/14 A3005 RMK A01 T03400137  RH  029%=      5-min Rain = 0
KEA1 072204Z 13009KT 34/14 A3005 RMK A01 T03390135  RH  029%=      5-min Rain = 0
KEA1 072205Z 14007KT 34/13 A3005 RMK A01 T03380133  RH  029%=      5-min Rain = 0
KEA1 072206Z 17009KT 34/14 A3005 RMK A01 T03370136  RH  030%=      5-min Rain = 0
KEA1 072207Z 15010KT 34/14 A3005 RMK A01 T03390136  RH  029%=      5-min Rain = 0
KEA1 072208Z 16010KT 34/14 A3005 RMK A01 T03440141  RH  030%=      5-min Rain = 0
KEA1 072209Z 16008KT 35/14 A3005 RMK A01 T03480141  RH  029%=      5-min Rain = 0
KEA1 072210Z 17013KT 35/14 A3004 RMK A01 T03540142  RH  028%=      5-min Rain = 0
KEA1 072211Z 16011KT 35/14 A3005 RMK A01 T03500136  RH  028%=      5-min Rain = 0
KEA1 072212Z 16007KT 34/14 A3005 RMK A01 T03440137  RH  029%=      5-min Rain = 0
KEA1 072213Z 16013G18KT 34/14 A3004 RMK A01 T03440137  RH  029%=      5-min Rain = 0
KEA1 072214Z 15014KT 35/14 A3004 RMK A01 T03450135  RH  028%=      5-min Rain = 0
KEA1 072215Z 16013KT 34/14 A3004 RMK A01 T03440136  RH  029%=      5-min Rain = 0
KEA1 072216Z 15013KT 34/14 A3004 RMK A01 T03440137  RH  029%=      5-min Rain = 0
KEA1 072217Z 15011KT 34/14 A3004 RMK A01 T03440137  RH  029%=      5-min Rain = 0
KEA1 072218Z 16011KT 34/14 A3004 RMK A01 T03430136  RH  029%=      5-min Rain = 0
KEA1 072219Z 17011KT 34/14 A3004 RMK A01 T03420135  RH  029%=      5-min Rain = 0
KEA1 072220Z 17011KT 34/14 A3004 RMK A01 T03420136  RH  029%=      5-min Rain = 0
KEA1 072221Z 16008KT 34/13 A3004 RMK A01 T03410133  RH  028%=      5-min Rain = 0
KEA1 072222Z 15010KT 34/14 A3004 RMK A01 T03400136  RH  029%=      5-min Rain = 0
KEA1 072223Z 14009KT 34/13 A3004 RMK A01 T03440134  RH  028%=      5-min Rain = 0
KEA1 072224Z 16011KT 35/14 A3004 RMK A01 T03450136  RH  029%=      5-min Rain = 0
KEA1 072225Z 18012KT 34/14 A3004 RMK A01 T03440135  RH  028%=      5-min Rain = 0
KEA1 072226Z 18009KT 34/13 A3004 RMK A01 T03400133  RH  029%=      5-min Rain = 0
KEA1 072227Z 18008KT 34/13 A3004 RMK A01 T03380134  RH  029%=      5-min Rain = 0
KEA1 072228Z 15004KT 34/13 A3004 RMK A01 T03380133  RH  029%=      5-min Rain = 0
KEA1 072229Z 11003KT 34/13 A3004 RMK A01 T03370133  RH  029%=      5-min Rain = 0
KEA1 072230Z 16005KT 34/14 A3004 RMK A01 T03370136  RH  030%=      5-min Rain = 0
KEA1 072231Z 17008KT 34/14 A3004 RMK A01 T03390136  RH  029%=      5-min Rain = 0
KEA1 072232Z 15011KT 34/14 A3004 RMK A01 T03420136  RH  029%=      5-min Rain = 0
KEA1 072233Z 16012KT 34/14 A3004 RMK A01 T03430135  RH  029%=      5-min Rain = 0
KEA1 072234Z 17012KT 34/13 A3004 RMK A01 T03430134  RH  029%=      5-min Rain = 0
KEA1 072235Z 19009KT 34/14 A3004 RMK A01 T03420135  RH  029%=      5-min Rain = 0
KEA1 072236Z 18010KT 34/14 A3004 RMK A01 T03410135  RH  029%=      5-min Rain = 0
KEA1 072237Z 15009KT 34/14 A3004 RMK A01 T03420137  RH  029%=      5-min Rain = 0
KEA1 072238Z 14007KT 34/14 A3004 RMK A01 T03430135  RH  029%=      5-min Rain = 0
KEA1 072239Z 14012KT 34/14 A3004 RMK A01 T03430136  RH  029%=      5-min Rain = 0
KEA1 072240Z 15008KT 34/13 A3004 RMK A01 T03410134  RH  029%=      5-min Rain = 0
KEA1 072241Z 14007KT 34/13 A3004 RMK A01 T03400134  RH  029%=      5-min Rain = 0
KEA1 072242Z 13007KT 34/13 A3004 RMK A01 T03390133  RH  029%=      5-min Rain = 0
KEA1 072243Z 14010KT 34/13 A3004 RMK A01 T03390134  RH  029%=      5-min Rain = 0
KEA1 072244Z 14013KT 34/13 A3004 RMK A01 T03400133  RH  029%=      5-min Rain = 0
KEA1 072245Z 15014KT 34/13 A3004 RMK A01 T03410132  RH  028%=      5-min Rain = 0
KEA1 072246Z 15013G19KT 34/13 A3004 RMK A01 T03410132  RH  028%=      5-min Rain = 0
KEA1 072247Z 15013G18KT 34/13 A3004 RMK A01 T03420132  RH  028%=      5-min Rain = 0
KEA1 072248Z 14013G18KT 34/14 A3004 RMK A01 T03420136  RH  029%=      5-min Rain = 0
KEA1 072249Z 14012KT 34/13 A3004 RMK A01 T03430133  RH  028%=      5-min Rain = 0
KEA1 072250Z 17009KT 34/14 A3004 RMK A01 T03420135  RH  029%=      5-min Rain = 0
KEA1 072251Z 16012KT 35/14 A3004 RMK A01 T03450137  RH  029%=      5-min Rain = 0
KEA1 072252Z 16015KT 35/13 A3004 RMK A01 T03470134  RH  028%=      5-min Rain = 0
KEA1 072253Z 17013KT 35/13 A3004 RMK A01 T03450132  RH  028%=      5-min Rain = 0
KEA1 072254Z 17010KT 34/13 A3004 RMK A01 T03430133  RH  028%=      5-min Rain = 0
KEA1 072255Z 17009KT 34/13 A3004 RMK A01 T03430133  RH  028%=      5-min Rain = 0
KEA1 072256Z 16008KT 34/13 A3004 RMK A01 T03430134  RH  028%=      5-min Rain = 0
KEA1 072257Z 17008G14KT 34/13 A3004 RMK A01 T03420132  RH  028%=      5-min Rain = 0
KEA1 072258Z 18010KT 34/14 A3004 RMK A01 T03420136  RH  029%=      5-min Rain = 0
KEA1 072259Z 17008KT 34/13 A3004 RMK A01 T03440132  RH  028%=      5-min Rain = 0
KEA1 072300Z 17012KT 34/13 A3003 RMK A01 T03440134  RH  028%=      5-min Rain = 0
KEA1 072301Z 15013KT 34/13 A3003 RMK A01 T03440132  RH  028%=      5-min Rain = 0
KEA1 072302Z 15010KT 34/13 A3004 RMK A01 T03440132  RH  028%=      5-min Rain = 0
KEA1 072303Z 15015KT 34/13 A3003 RMK A01 T03430132  RH  028%=      5-min Rain = 0
KEA1 072304Z 14013KT 34/13 A3003 RMK A01 T03420129  RH  028%=      5-min Rain = 0
KEA1 072305Z 14009KT 34/13 A3003 RMK A01 T03400128  RH  028%=      5-min Rain = 0
KEA1 072306Z 14009KT 34/13 A3003 RMK A01 T03390131  RH  028%=      5-min Rain = 0
KEA1 072307Z 12010KT 34/13 A3003 RMK A01 T03410131  RH  028%=      5-min Rain = 0
KEA1 072308Z 12011KT 34/13 A3003 RMK A01 T03420132  RH  028%=      5-min Rain = 0
KEA1 072309Z 14011G17KT 34/13 A3003 RMK A01 T03430132  RH  028%=      5-min Rain = 0
KEA1 072310Z 15015KT 34/13 A3003 RMK A01 T03440134  RH  028%=      5-min Rain = 0
KEA1 072311Z 16014KT 35/13 A3003 RMK A01 T03450132  RH  028%=      5-min Rain = 0
KEA1 072312Z 15011KT 34/13 A3003 RMK A01 T03430132  RH  028%=      5-min Rain = 0
KEA1 072313Z 14006KT 34/13 A3003 RMK A01 T03420132  RH  028%=      5-min Rain = 0
KEA1 072314Z 16008KT 34/14 A3003 RMK A01 T03420135  RH  029%=      5-min Rain = 0
KEA1 072315Z 15010KT 34/14 A3003 RMK A01 T03430135  RH  029%=      5-min Rain = 0
KEA1 072316Z 17016KT 35/13 A3003 RMK A01 T03450132  RH  028%=      5-min Rain = 0
KEA1 072317Z 16014KT 34/13 A3003 RMK A01 T03440133  RH  028%=      5-min Rain = 0
KEA1 072318Z 16013KT 34/13 A3003 RMK A01 T03420131  RH  028%=      5-min Rain = 0
KEA1 072319Z 16012KT 34/13 A3003 RMK A01 T03390130  RH  028%=      5-min Rain = 0
KEA1 072320Z 16008KT 34/13 A3003 RMK A01 T03380131  RH  029%=      5-min Rain = 0
KEA1 072321Z 16009KT 34/14 A3003 RMK A01 T03400135  RH  029%=      5-min Rain = 0
KEA1 072322Z 14015KT 34/14 A3003 RMK A01 T03430135  RH  029%=      5-min Rain = 0
KEA1 072323Z 14011KT 34/13 A3003 RMK A01 T03440133  RH  028%=      5-min Rain = 0
KEA1 072324Z 14008KT 34/13 A3003 RMK A01 T03420132  RH  028%=      5-min Rain = 0
KEA1 072325Z 14010KT 34/13 A3003 RMK A01 T03410134  RH  029%=      5-min Rain = 0
KEA1 072326Z 14010KT 34/13 A3003 RMK A01 T03410132  RH  028%=      5-min Rain = 0
KEA1 072327Z 17011KT 34/13 A3003 RMK A01 T03410133  RH  028%=      5-min Rain = 0
KEA1 072328Z 18012KT 34/13 A3003 RMK A01 T03420132  RH  028%=      5-min Rain = 0
KEA1 072329Z 18009KT 34/13 A3003 RMK A01 T03420132  RH  028%=      5-min Rain = 0
KEA1 072330Z 17009KT 34/13 A3003 RMK A01 T03420133  RH  028%=      5-min Rain = 0
KEA1 072331Z 17010KT 34/13 A3003 RMK A01 T03420133  RH  028%=      5-min Rain = 0
KEA1 072332Z 17012KT 34/13 A3003 RMK A01 T03420132  RH  028%=      5-min Rain = 0
KEA1 072333Z 17009KT 34/14 A3003 RMK A01 T03410135  RH  029%=      5-min Rain = 0
KEA1 072334Z 17009KT 34/13 A3003 RMK A01 T03410133  RH  029%=      5-min Rain = 0
KEA1 072335Z 17008KT 34/13 A3003 RMK A01 T03410133  RH  029%=      5-min Rain = 0
KEA1 072336Z 19006KT 34/14 A3003 RMK A01 T03410135  RH  029%=      5-min Rain = 0
KEA1 072337Z 19008KT 34/13 A3003 RMK A01 T03420133  RH  028%=      5-min Rain = 0
KEA1 072338Z 16009KT 34/13 A3003 RMK A01 T03420134  RH  029%=      5-min Rain = 0
KEA1 072339Z 18013KT 34/13 A3002 RMK A01 T03410134  RH  029%=      5-min Rain = 0
KEA1 072340Z 17011KT 34/13 A3003 RMK A01 T03410134  RH  029%=      5-min Rain = 0
KEA1 072341Z 18010KT 34/13 A3003 RMK A01 T03410132  RH  028%=      5-min Rain = 0
KEA1 072342Z 19008KT 34/13 A3002 RMK A01 T03390131  RH  029%=      5-min Rain = 0
KEA1 072343Z 17011KT 34/13 A3002 RMK A01 T03380134  RH  029%=      5-min Rain = 0
KEA1 072344Z 18012KT 34/13 A3002 RMK A01 T03380133  RH  029%=      5-min Rain = 0
KEA1 072345Z 18011KT 34/13 A3002 RMK A01 T03390134  RH  029%=      5-min Rain = 0
KEA1 072346Z 16011KT 34/13 A3002 RMK A01 T03390134  RH  029%=      5-min Rain = 0
KEA1 072347Z 17009KT 34/13 A3002 RMK A01 T03390130  RH  028%=      5-min Rain = 0
KEA1 072348Z 15007KT 34/13 A3002 RMK A01 T03390132  RH  029%=      5-min Rain = 0
KEA1 072349Z 15013KT 34/13 A3002 RMK A01 T03390132  RH  029%=      5-min Rain = 0
KEA1 072350Z 15013KT 34/13 A3002 RMK A01 T03390132  RH  029%=      5-min Rain = 0
KEA1 072351Z 16011KT 34/13 A3002 RMK A01 T03390132  RH  029%=      5-min Rain = 0
KEA1 072352Z 15009KT 34/13 A3002 RMK A01 T03390133  RH  029%=      5-min Rain = 0
KEA1 072353Z 16010KT 34/13 A3002 RMK A01 T03390134  RH  029%=      5-min Rain = 0
KEA1 072354Z 18011KT 34/13 A3002 RMK A01 T03400132  RH  029%=      5-min Rain = 0
KEA1 072355Z 16009KT 34/13 A3002 RMK A01 T03400132  RH  029%=      5-min Rain = 0
KEA1 072356Z 16009KT 34/13 A3002 RMK A01 T03390132  RH  029%=      5-min Rain = 0
KEA1 072357Z 17009KT 34/13 A3002 RMK A01 T03390132  RH  029%=      5-min Rain = 0
KEA1 072358Z 17008KT 34/13 A3002 RMK A01 T03390131  RH  029%=      5-min Rain = 0
KEA1 072359Z 17009KT 34/14 A3002 RMK A01 T03400135  RH  029%=      5-min Rain = 0
KEA1 080000Z 17010KT 34/13 A3002 RMK A01 T03410132  RH  028%=      5-min Rain = 0
KEA1 080001Z 17009KT 34/13 A3002 RMK A01 T03400131  RH  028%=      5-min Rain = 0
KEA1 080002Z 18012KT 34/13 A3002 RMK A01 T03400132  RH  029%=      5-min Rain = 0
KEA1 080003Z 18010KT 34/13 A3002 RMK A01 T03390129  RH  028%=      5-min Rain = 0
KEA1 080004Z 18007KT 34/13 A3002 RMK A01 T03370132  RH  029%=      5-min Rain = 0
KEA1 080005Z 16008KT 34/13 A3002 RMK A01 T03380132  RH  029%=      5-min Rain = 0
KEA1 080006Z 15011KT 34/13 A3002 RMK A01 T03380131  RH  029%=      5-min Rain = 0
KEA1 080007Z 15010KT 34/13 A3002 RMK A01 T03380131  RH  029%=      5-min Rain = 0
KEA1 080008Z 13008KT 34/13 A3002 RMK A01 T03370130  RH  028%=      5-min Rain = 0
KEA1 080009Z 13005KT 34/13 A3002 RMK A01 T03360131  RH  029%=      5-min Rain = 0
KEA1 080010Z 14009KT 34/13 A3002 RMK A01 T03350131  RH  029%=      5-min Rain = 0
KEA1 080011Z 14008KT 34/13 A3002 RMK A01 T03350131  RH  029%=      5-min Rain = 0
KEA1 080012Z 14009KT 34/13 A3002 RMK A01 T03350130  RH  029%=      5-min Rain = 0
KEA1 080013Z 15011KT 34/13 A3002 RMK A01 T03360132  RH  029%=      5-min Rain = 0
KEA1 080014Z 15012KT 34/13 A3002 RMK A01 T03360130  RH  029%=      5-min Rain = 0
KEA1 080015Z 15010KT 34/13 A3002 RMK A01 T03360130  RH  029%=      5-min Rain = 0
KEA1 080016Z 16011KT 34/13 A3002 RMK A01 T03370129  RH  028%=      5-min Rain = 0
KEA1 080017Z 14008KT 34/13 A3002 RMK A01 T03370130  RH  029%=      5-min Rain = 0
KEA1 080018Z 15009KT 34/13 A3002 RMK A01 T03360131  RH  029%=      5-min Rain = 0
KEA1 080019Z 15010KT 34/13 A3002 RMK A01 T03370130  RH  029%=      5-min Rain = 0
KEA1 080020Z 15008KT 34/13 A3002 RMK A01 T03370129  RH  028%=      5-min Rain = 0
KEA1 080021Z 16006KT 34/13 A3002 RMK A01 T03360129  RH  028%=      5-min Rain = 0
KEA1 080022Z 15005KT 34/13 A3002 RMK A01 T03360129  RH  029%=      5-min Rain = 0
KEA1 080023Z 15005KT 34/13 A3002 RMK A01 T03360132  RH  029%=      5-min Rain = 0
KEA1 080024Z 14006KT 34/13 A3002 RMK A01 T03360130  RH  029%=      5-min Rain = 0
KEA1 080025Z 13009KT 34/13 A3002 RMK A01 T03360131  RH  029%=      5-min Rain = 0
KEA1 080026Z 14009KT 34/13 A3002 RMK A01 T03360128  RH  028%=      5-min Rain = 0
KEA1 080027Z 14008KT 34/13 A3002 RMK A01 T03360129  RH  029%=      5-min Rain = 0
KEA1 080028Z 13007KT 34/13 A3002 RMK A01 T03350129  RH  029%=      5-min Rain = 0
KEA1 080029Z 13008KT 33/13 A3002 RMK A01 T03340131  RH  029%=      5-min Rain = 0
KEA1 080030Z 12010KT 33/13 A3001 RMK A01 T03340131  RH  029%=      5-min Rain = 0
KEA1 080031Z 13010KT 33/13 A3002 RMK A01 T03340131  RH  029%=      5-min Rain = 0
KEA1 080032Z 13010KT 33/13 A3002 RMK A01 T03340130  RH  029%=      5-min Rain = 0
KEA1 080033Z 14011KT 33/13 A3002 RMK A01 T03340131  RH  029%=      5-min Rain = 0
KEA1 080034Z 14010KT 33/13 A3002 RMK A01 T03340131  RH  029%=      5-min Rain = 0
KEA1 080035Z 14010KT 33/13 A3002 RMK A01 T03330131  RH  029%=      5-min Rain = 0
KEA1 080036Z 15012KT 33/13 A3002 RMK A01 T03340129  RH  029%=      5-min Rain = 0
KEA1 080037Z 15011KT 33/13 A3002 RMK A01 T03330129  RH  029%=      5-min Rain = 0
KEA1 080038Z 16012KT 33/13 A3002 RMK A01 T03330129  RH  029%=      5-min Rain = 0
KEA1 080039Z 16010KT 33/13 A3002 RMK A01 T03330129  RH  029%=      5-min Rain = 0
KEA1 080040Z 15008KT 33/13 A3002 RMK A01 T03330129  RH  029%=      5-min Rain = 0
KEA1 080041Z 15007KT 33/13 A3002 RMK A01 T03320130  RH  029%=      5-min Rain = 0
KEA1 080042Z 15007KT 33/13 A3002 RMK A01 T03320131  RH  030%=      5-min Rain = 0
KEA1 080043Z 14008KT 33/13 A3002 RMK A01 T03320130  RH  029%=      5-min Rain = 0
KEA1 080044Z 14013KT 33/13 A3002 RMK A01 T03320129  RH  029%=      5-min Rain = 0
KEA1 080045Z 14012KT 33/13 A3002 RMK A01 T03310126  RH  029%=      5-min Rain = 0
KEA1 080046Z 15010KT 33/13 A3002 RMK A01 T03290127  RH  029%=      5-min Rain = 0
KEA1 080047Z 15010KT 33/13 A3002 RMK A01 T03290127  RH  029%=      5-min Rain = 0
KEA1 080048Z 15011KT 33/13 A3002 RMK A01 T03290128  RH  030%=      5-min Rain = 0
KEA1 080049Z 14009KT 33/13 A3002 RMK A01 T03290128  RH  030%=      5-min Rain = 0
KEA1 080050Z 14010KT 33/13 A3002 RMK A01 T03280129  RH  030%=      5-min Rain = 0
KEA1 080051Z 14010KT 33/13 A3002 RMK A01 T03270129  RH  030%=      5-min Rain = 0
KEA1 080052Z 14010KT 33/13 A3002 RMK A01 T03270128  RH  030%=      5-min Rain = 0
KEA1 080053Z 14011KT 33/13 A3002 RMK A01 T03270127  RH  030%=      5-min Rain = 0
KEA1 080054Z 14010KT 33/13 A3002 RMK A01 T03260127  RH  030%=      5-min Rain = 0
KEA1 080055Z 14010KT 33/13 A3002 RMK A01 T03260128  RH  030%=      5-min Rain = 0
KEA1 080056Z 13010KT 33/13 A3002 RMK A01 T03260128  RH  030%=      5-min Rain = 0
KEA1 080057Z 12010KT 33/13 A3002 RMK A01 T03250126  RH  030%=      5-min Rain = 0
KEA1 080058Z 12011KT 33/13 A3002 RMK A01 T03250127  RH  030%=      5-min Rain = 0
KEA1 080059Z 13009KT 32/13 A3002 RMK A01 T03240126  RH  030%=      5-min Rain = 0
KEA1 080100Z 13010KT 32/13 A3002 RMK A01 T03240127  RH  030%=      5-min Rain = 0
KEA1 080101Z 13012KT 32/13 A3002 RMK A01 T03230126  RH  030%=      5-min Rain = 0
KEA1 080102Z 12011KT 32/13 A3002 RMK A01 T03230125  RH  030%=      5-min Rain = 0
KEA1 080103Z 11009KT 32/13 A3002 RMK A01 T03230125  RH  030%=      5-min Rain = 0
KEA1 080104Z 12011KT 32/13 A3002 RMK A01 T03220125  RH  030%=      5-min Rain = 0
KEA1 080105Z 13010KT 32/13 A3003 RMK A01 T03220125  RH  030%=      5-min Rain = 0
KEA1 080106Z 13009KT 32/13 A3003 RMK A01 T03220125  RH  030%=      5-min Rain = 0
KEA1 080107Z 12010KT 32/13 A3003 RMK A01 T03210126  RH  030%=      5-min Rain = 0
KEA1 080108Z 13012KT 32/12 A3003 RMK A01 T03210124  RH  030%=      5-min Rain = 0
KEA1 080109Z 13010KT 32/12 A3003 RMK A01 T03210124  RH  030%=      5-min Rain = 0
KEA1 080110Z 13011KT 32/13 A3003 RMK A01 T03210125  RH  030%=      5-min Rain = 0
KEA1 080111Z 13010KT 32/13 A3003 RMK A01 T03210125  RH  030%=      5-min Rain = 0
KEA1 080112Z 12008KT 32/13 A3003 RMK A01 T03210125  RH  030%=      5-min Rain = 0
KEA1 080113Z 12008KT 32/13 A3003 RMK A01 T03200127  RH  031%=      5-min Rain = 0
KEA1 080114Z 13010KT 32/13 A3003 RMK A01 T03190126  RH  031%=      5-min Rain = 0
KEA1 080115Z 13009KT 32/13 A3003 RMK A01 T03180126  RH  031%=      5-min Rain = 0
KEA1 080116Z 12009KT 32/13 A3003 RMK A01 T03180126  RH  031%=      5-min Rain = 0
KEA1 080117Z 13009KT 32/13 A3003 RMK A01 T03170127  RH  031%=      5-min Rain = 0
KEA1 080118Z 13009KT 32/13 A3003 RMK A01 T03160127  RH  031%=      5-min Rain = 0
KEA1 080119Z 13009KT 32/13 A3003 RMK A01 T03160127  RH  031%=      5-min Rain = 0
KEA1 080120Z 13008KT 32/13 A3003 RMK A01 T03160126  RH  031%=      5-min Rain = 0
KEA1 080121Z 13009KT 32/13 A3003 RMK A01 T03160127  RH  032%=      5-min Rain = 0
KEA1 080122Z 13008KT 32/13 A3003 RMK A01 T03150126  RH  032%=      5-min Rain = 0
KEA1 080123Z 13008KT 31/13 A3003 RMK A01 T03140127  RH  032%=      5-min Rain = 0
KEA1 080124Z 13008KT 31/13 A3003 RMK A01 T03130127  RH  032%=      5-min Rain = 0
KEA1 080125Z 13008KT 31/13 A3003 RMK A01 T03120127  RH  032%=      5-min Rain = 0
KEA1 080126Z 13010KT 31/13 A3003 RMK A01 T03120127  RH  032%=      5-min Rain = 0
KEA1 080127Z 13010KT 31/13 A3003 RMK A01 T03110125  RH  032%=      5-min Rain = 0
KEA1 080128Z 13009KT 31/13 A3003 RMK A01 T03110125  RH  032%=      5-min Rain = 0
KEA1 080129Z 13009KT 31/13 A3003 RMK A01 T03110126  RH  032%=      5-min Rain = 0
KEA1 080130Z 12009KT 31/13 A3003 RMK A01 T03100126  RH  032%=      5-min Rain = 0
KEA1 080131Z 12009KT 31/13 A3003 RMK A01 T03090126  RH  033%=      5-min Rain = 0
KEA1 080132Z 12008KT 31/13 A3003 RMK A01 T03080126  RH  033%=      5-min Rain = 0
KEA1 080133Z 12009KT 31/13 A3003 RMK A01 T03070126  RH  033%=      5-min Rain = 0
KEA1 080134Z 13009KT 31/13 A3003 RMK A01 T03060125  RH  033%=      5-min Rain = 0
KEA1 080135Z 13010KT 31/13 A3003 RMK A01 T03050125  RH  033%=      5-min Rain = 0
KEA1 080136Z 13009KT 31/13 A3003 RMK A01 T03050125  RH  033%=      5-min Rain = 0
KEA1 080137Z 13009KT 30/12 A3003 RMK A01 T03040124  RH  033%=      5-min Rain = 0
KEA1 080138Z 13009KT 30/13 A3003 RMK A01 T03040125  RH  033%=      5-min Rain = 0
KEA1 080139Z 13009KT 30/12 A3003 RMK A01 T03040124  RH  033%=      5-min Rain = 0
KEA1 080140Z 13010KT 30/12 A3003 RMK A01 T03040124  RH  033%=      5-min Rain = 0
KEA1 080141Z 13009KT 30/12 A3003 RMK A01 T03030124  RH  033%=      5-min Rain = 0
KEA1 080142Z 13009KT 30/12 A3003 RMK A01 T03020124  RH  034%=      5-min Rain = 0
KEA1 080143Z 13008KT 30/12 A3003 RMK A01 T03010124  RH  034%=      5-min Rain = 0
KEA1 080144Z 13009KT 30/12 A3003 RMK A01 T03000124  RH  034%=      5-min Rain = 0
KEA1 080145Z 13009KT 30/13 A3003 RMK A01 T02990125  RH  034%=      5-min Rain = 0
KEA1 080146Z 13009KT 30/12 A3003 RMK A01 T02980124  RH  034%=      5-min Rain = 0
KEA1 080147Z 13008KT 30/13 A3003 RMK A01 T02980125  RH  035%=      5-min Rain = 0
KEA1 080148Z 13008KT 30/13 A3003 RMK A01 T02970125  RH  035%=      5-min Rain = 0
KEA1 080149Z 13008KT 30/13 A3003 RMK A01 T02960125  RH  035%=      5-min Rain = 0
KEA1 080150Z 13009KT 30/13 A3003 RMK A01 T02950125  RH  035%=      5-min Rain = 0
KEA1 080151Z 13008KT 29/13 A3003 RMK A01 T02940125  RH  035%=      5-min Rain = 0
KEA1 080152Z 13008KT 29/13 A3003 RMK A01 T02930125  RH  036%=      5-min Rain = 0
KEA1 080153Z 13009KT 29/13 A3003 RMK A01 T02920125  RH  036%=      5-min Rain = 0
KEA1 080154Z 13009KT 29/13 A3003 RMK A01 T02920125  RH  036%=      5-min Rain = 0
KEA1 080155Z 13009KT 29/13 A3003 RMK A01 T02910125  RH  036%=      5-min Rain = 0
KEA1 080156Z 13009KT 29/13 A3003 RMK A01 T02910125  RH  036%=      5-min Rain = 0
KEA1 080157Z 14009KT 29/13 A3003 RMK A01 T02910125  RH  036%=      5-min Rain = 0
KEA1 080158Z 13009KT 29/13 A3003 RMK A01 T02910125  RH  036%=      5-min Rain = 0
KEA1 080159Z 13009KT 29/13 A3003 RMK A01 T02900125  RH  036%=      5-min Rain = 0
KEA1 080200Z 13009KT 29/13 A3003 RMK A01 T02900125  RH  036%=      5-min Rain = 0
KEA1 080201Z 13009KT 29/12 A3003 RMK A01 T02890124  RH  036%=      5-min Rain = 0
KEA1 080202Z 13009KT 29/13 A3003 RMK A01 T02890125  RH  036%=      5-min Rain = 0
KEA1 080203Z 13009KT 29/13 A3003 RMK A01 T02880125  RH  037%=      5-min Rain = 0
KEA1 080204Z 13009KT 29/12 A3003 RMK A01 T02870124  RH  037%=      5-min Rain = 0
KEA1 080205Z 14008KT 29/12 A3003 RMK A01 T02860124  RH  037%=      5-min Rain = 0
KEA1 080206Z 13008KT 29/12 A3004 RMK A01 T02860124  RH  037%=      5-min Rain = 0
KEA1 080207Z 13008KT 29/12 A3004 RMK A01 T02850124  RH  037%=      5-min Rain = 0
KEA1 080208Z 14008KT 28/12 A3004 RMK A01 T02840124  RH  037%=      5-min Rain = 0
KEA1 080209Z 13008KT 28/12 A3004 RMK A01 T02830124  RH  037%=      5-min Rain = 0
KEA1 080210Z 14008KT 28/12 A3004 RMK A01 T02820124  RH  038%=      5-min Rain = 0
KEA1 080211Z 13008KT 28/12 A3004 RMK A01 T02820124  RH  038%=      5-min Rain = 0
KEA1 080212Z 13008KT 28/12 A3004 RMK A01 T02810124  RH  038%=      5-min Rain = 0
KEA1 080213Z 13009KT 28/12 A3004 RMK A01 T02800124  RH  038%=      5-min Rain = 0
KEA1 080214Z 14009KT 28/12 A3004 RMK A01 T02800124  RH  038%=      5-min Rain = 0
KEA1 080215Z 14008KT 28/12 A3004 RMK A01 T02800124  RH  038%=      5-min Rain = 0
KEA1 080216Z 14008KT 28/12 A3004 RMK A01 T02790123  RH  038%=      5-min Rain = 0
KEA1 080217Z 14008KT 28/12 A3004 RMK A01 T02780124  RH  038%=      5-min Rain = 0
KEA1 080218Z 14009KT 28/12 A3004 RMK A01 T02770124  RH  039%=      5-min Rain = 0
KEA1 080219Z 14009KT 28/12 A3004 RMK A01 T02770123  RH  039%=      5-min Rain = 0
KEA1 080220Z 14009KT 28/12 A3004 RMK A01 T02760123  RH  039%=      5-min Rain = 0
KEA1 080221Z 14009KT 28/12 A3004 RMK A01 T02750123  RH  039%=      5-min Rain = 0
KEA1 080222Z 14009KT 28/12 A3004 RMK A01 T02750124  RH  039%=      5-min Rain = 0
KEA1 080223Z 14009KT 28/12 A3004 RMK A01 T02750124  RH  039%=      5-min Rain = 0
KEA1 080224Z 14009KT 27/12 A3004 RMK A01 T02740123  RH  039%=      5-min Rain = 0
KEA1 080225Z 14009KT 27/12 A3004 RMK A01 T02730123  RH  039%=      5-min Rain = 0
KEA1 080226Z 14009KT 27/12 A3004 RMK A01 T02730123  RH  039%=      5-min Rain = 0
KEA1 080227Z 14009KT 27/12 A3004 RMK A01 T02730123  RH  039%=      5-min Rain = 0
KEA1 080228Z 14009KT 27/12 A3004 RMK A01 T02730123  RH  040%=      5-min Rain = 0
KEA1 080229Z 14009KT 27/12 A3004 RMK A01 T02730123  RH  040%=      5-min Rain = 0
KEA1 080230Z 14009KT 27/12 A3004 RMK A01 T02730123  RH  039%=      5-min Rain = 0
KEA1 080231Z 14009KT 27/12 A3004 RMK A01 T02720123  RH  040%=      5-min Rain = 0
KEA1 080232Z 14009KT 27/12 A3004 RMK A01 T02710123  RH  040%=      5-min Rain = 0
KEA1 080233Z 14009KT 27/12 A3004 RMK A01 T02710123  RH  040%=      5-min Rain = 0
KEA1 080234Z 14009KT 27/12 A3004 RMK A01 T02710123  RH  040%=      5-min Rain = 0
KEA1 080235Z 14009KT 27/12 A3004 RMK A01 T02710123  RH  040%=      5-min Rain = 0
KEA1 080236Z 14009KT 27/12 A3004 RMK A01 T02710123  RH  040%=      5-min Rain = 0
KEA1 080237Z 14009KT 27/12 A3004 RMK A01 T02710122  RH  040%=      5-min Rain = 0
KEA1 080238Z 14009KT 27/12 A3004 RMK A01 T02710122  RH  040%=      5-min Rain = 0
KEA1 080239Z 14009KT 27/12 A3004 RMK A01 T02710123  RH  040%=      5-min Rain = 0
KEA1 080240Z 14009KT 27/12 A3004 RMK A01 T02710122  RH  040%=      5-min Rain = 0
KEA1 080241Z 14009KT 27/12 A3004 RMK A01 T02710123  RH  040%=      5-min Rain = 0
KEA1 080242Z 14009KT 27/12 A3004 RMK A01 T02710122  RH  040%=      5-min Rain = 0
KEA1 080243Z 14009KT 27/12 A3005 RMK A01 T02710122  RH  040%=      5-min Rain = 0
KEA1 080244Z 14009KT 27/12 A3005 RMK A01 T02700122  RH  040%=      5-min Rain = 0
KEA1 080245Z 14009KT 27/12 A3005 RMK A01 T02700122  RH  040%=      5-min Rain = 0
KEA1 080246Z 14009KT 27/12 A3005 RMK A01 T02700122  RH  040%=      5-min Rain = 0
KEA1 080247Z 14009KT 27/12 A3005 RMK A01 T02690122  RH  040%=      5-min Rain = 0
KEA1 080248Z 14009KT 27/12 A3005 RMK A01 T02690122  RH  040%=      5-min Rain = 0
KEA1 080249Z 14009KT 27/12 A3005 RMK A01 T02680122  RH  040%=      5-min Rain = 0
KEA1 080250Z 14010KT 27/12 A3005 RMK A01 T02680122  RH  040%=      5-min Rain = 0
KEA1 080251Z 14009KT 27/12 A3005 RMK A01 T02680122  RH  040%=      5-min Rain = 0
KEA1 080252Z 14009KT 27/12 A3005 RMK A01 T02670122  RH  040%=      5-min Rain = 0
KEA1 080253Z 14009KT 27/12 A3005 RMK A01 T02670122  RH  040%=      5-min Rain = 0
KEA1 080254Z 14009KT 27/12 A3005 RMK A01 T02670122  RH  040%=      5-min Rain = 0
KEA1 080255Z 14009KT 27/12 A3005 RMK A01 T02670122  RH  040%=      5-min Rain = 0
KEA1 080256Z 14010KT 27/12 A3005 RMK A01 T02670122  RH  040%=      5-min Rain = 0
KEA1 080257Z 14009KT 27/12 A3005 RMK A01 T02670122  RH  041%=      5-min Rain = 0
KEA1 080258Z 14010KT 27/12 A3005 RMK A01 T02660121  RH  041%=      5-min Rain = 0
KEA1 080259Z 14010KT 27/12 A3005 RMK A01 T02660121  RH  041%=      5-min Rain = 0
KEA1 080300Z 14010KT 27/12 A3005 RMK A01 T02660121  RH  040%=      5-min Rain = 0
KEA1 080301Z 14010KT 27/12 A3005 RMK A01 T02660121  RH  040%=      5-min Rain = 0
KEA1 080302Z 14010KT 27/12 A3005 RMK A01 T02660120  RH  040%=      5-min Rain = 0
KEA1 080303Z 14010KT 27/12 A3005 RMK A01 T02680120  RH  040%=      5-min Rain = 0
KEA1 080304Z 14010KT 27/12 A3005 RMK A01 T02680120  RH  040%=      5-min Rain = 0
KEA1 080305Z 14010KT 27/12 A3005 RMK A01 T02680121  RH  040%=      5-min Rain = 0
KEA1 080306Z 14009KT 27/12 A3005 RMK A01 T02670120  RH  040%=      5-min Rain = 0
KEA1 080307Z 14010KT 27/12 A3005 RMK A01 T02670120  RH  040%=      5-min Rain = 0
KEA1 080308Z 14010KT 27/12 A3005 RMK A01 T02670120  RH  040%=      5-min Rain = 0
KEA1 080309Z 14009KT 27/12 A3005 RMK A01 T02670120  RH  040%=      5-min Rain = 0
KEA1 080310Z 14009KT 27/12 A3005 RMK A01 T02660120  RH  040%=      5-min Rain = 0
KEA1 080311Z 14009KT 27/12 A3005 RMK A01 T02650120  RH  040%=      5-min Rain = 0
KEA1 080312Z 13009KT 27/12 A3005 RMK A01 T02650120  RH  040%=      5-min Rain = 0
KEA1 080313Z 14009KT 27/12 A3005 RMK A01 T02650120  RH  041%=      5-min Rain = 0
KEA1 080314Z 14009KT 27/12 A3005 RMK A01 T02650120  RH  041%=      5-min Rain = 0
KEA1 080315Z 13009KT 26/12 A3006 RMK A01 T02640120  RH  041%=      5-min Rain = 0
KEA1 080316Z 13009KT 26/12 A3006 RMK A01 T02640120  RH  041%=      5-min Rain = 0
KEA1 080317Z 13008KT 26/12 A3006 RMK A01 T02630121  RH  041%=      5-min Rain = 0
KEA1 080318Z 13009KT 26/12 A3006 RMK A01 T02620121  RH  041%=      5-min Rain = 0
KEA1 080319Z 13009KT 26/12 A3006 RMK A01 T02620121  RH  041%=      5-min Rain = 0
KEA1 080320Z 13008KT 26/12 A3006 RMK A01 T02610120  RH  041%=      5-min Rain = 0
KEA1 080321Z 13009KT 26/12 A3006 RMK A01 T02610121  RH  042%=      5-min Rain = 0
KEA1 080322Z 13009KT 26/12 A3006 RMK A01 T02610121  RH  042%=      5-min Rain = 0
KEA1 080323Z 14009KT 26/12 A3006 RMK A01 T02600121  RH  042%=      5-min Rain = 0
KEA1 080324Z 13009KT 26/12 A3006 RMK A01 T02600120  RH  042%=      5-min Rain = 0
KEA1 080325Z 13008KT 26/12 A3006 RMK A01 T02590120  RH  042%=      5-min Rain = 0
KEA1 080326Z 13009KT 26/12 A3007 RMK A01 T02590120  RH  042%=      5-min Rain = 0
KEA1 080327Z 13009KT 26/12 A3007 RMK A01 T02590120  RH  042%=      5-min Rain = 0
KEA1 080328Z 13009KT 26/12 A3007 RMK A01 T02590120  RH  042%=      5-min Rain = 0
KEA1 080329Z 13009KT 26/12 A3007 RMK A01 T02580120  RH  042%=      5-min Rain = 0
KEA1 080330Z 13008KT 26/12 A3007 RMK A01 T02580120  RH  042%=      5-min Rain = 0
KEA1 080331Z 13009KT 26/12 A3007 RMK A01 T02580120  RH  042%=      5-min Rain = 0
KEA1 080332Z 13009KT 26/12 A3007 RMK A01 T02570120  RH  042%=      5-min Rain = 0
KEA1 080333Z 13009KT 26/12 A3007 RMK A01 T02560120  RH  043%=      5-min Rain = 0
KEA1 080334Z 13009KT 26/12 A3007 RMK A01 T02550119  RH  043%=      5-min Rain = 0
KEA1 080335Z 14009KT 25/12 A3007 RMK A01 T02540120  RH  043%=      5-min Rain = 0
KEA1 080336Z 14009KT 25/12 A3007 RMK A01 T02540120  RH  043%=      5-min Rain = 0
KEA1 080337Z 14009KT 25/12 A3007 RMK A01 T02530120  RH  043%=      5-min Rain = 0
KEA1 080338Z 14009KT 25/12 A3007 RMK A01 T02520119  RH  044%=      5-min Rain = 0
KEA1 080339Z 14009KT 25/12 A3007 RMK A01 T02520120  RH  044%=      5-min Rain = 0
KEA1 080340Z 13009KT 25/12 A3007 RMK A01 T02510119  RH  044%=      5-min Rain = 0
KEA1 080341Z 13009KT 25/12 A3007 RMK A01 T02500119  RH  044%=      5-min Rain = 0
KEA1 080342Z 14009KT 25/12 A3007 RMK A01 T02500119  RH  044%=      5-min Rain = 0
KEA1 080343Z 13009KT 25/12 A3007 RMK A01 T02500119  RH  044%=      5-min Rain = 0
KEA1 080344Z 14009KT 25/12 A3007 RMK A01 T02500119  RH  044%=      5-min Rain = 0
KEA1 080345Z 14008KT 25/12 A3007 RMK A01 T02500119  RH  044%=      5-min Rain = 0
KEA1 080346Z 13009KT 25/12 A3007 RMK A01 T02500118  RH  044%=      5-min Rain = 0
KEA1 080347Z 14008KT 25/12 A3007 RMK A01 T02500118  RH  044%=      5-min Rain = 0
KEA1 080348Z 14009KT 25/12 A3007 RMK A01 T02500119  RH  044%=      5-min Rain = 0
KEA1 080349Z 13009KT 25/12 A3007 RMK A01 T02490118  RH  044%=      5-min Rain = 0
KEA1 080350Z 13009KT 25/12 A3007 RMK A01 T02490118  RH  044%=      5-min Rain = 0
KEA1 080351Z 13010KT 25/12 A3007 RMK A01 T02490117  RH  044%=      5-min Rain = 0
KEA1 080352Z 13009KT 25/12 A3007 RMK A01 T02500118  RH  044%=      5-min Rain = 0
KEA1 080353Z 13009KT 25/12 A3007 RMK A01 T02500117  RH  043%=      5-min Rain = 0
KEA1 080354Z 13009KT 25/12 A3007 RMK A01 T02510117  RH  043%=      5-min Rain = 0
KEA1 080355Z 13009KT 25/12 A3007 RMK A01 T02500117  RH  043%=      5-min Rain = 0
KEA1 080356Z 13009KT 25/12 A3007 RMK A01 T02500117  RH  043%=      5-min Rain = 0
KEA1 080357Z 13010KT 25/12 A3007 RMK A01 T02500116  RH  043%=      5-min Rain = 0
KEA1 080358Z 14009KT 25/12 A3007 RMK A01 T02510116  RH  043%=      5-min Rain = 0
KEA1 080359Z 13009KT 25/12 A3007 RMK A01 T02500116  RH  043%=      5-min Rain = 0
KEA1 080400Z 14009KT 25/12 A3007 RMK A01 T02500116  RH  043%=      5-min Rain = 0
KEA1 080401Z 14009KT 25/12 A3007 RMK A01 T02510116  RH  043%=      5-min Rain = 0
KEA1 080402Z 14009KT 25/12 A3007 RMK A01 T02510116  RH  043%=      5-min Rain = 0
KEA1 080403Z 14009KT 25/12 A3007 RMK A01 T02500116  RH  043%=      5-min Rain = 0
KEA1 080404Z 14009KT 25/12 A3007 RMK A01 T02500115  RH  043%=      5-min Rain = 0
KEA1 080405Z 14009KT 25/12 A3007 RMK A01 T02510115  RH  043%=      5-min Rain = 0
KEA1 080406Z 14009KT 25/12 A3007 RMK A01 T02510115  RH  043%=      5-min Rain = 0
KEA1 080407Z 14009KT 25/12 A3007 RMK A01 T02510115  RH  043%=      5-min Rain = 0
KEA1 080408Z 14009KT 25/12 A3007 RMK A01 T02510115  RH  043%=      5-min Rain = 0
KEA1 080409Z 14009KT 25/12 A3007 RMK A01 T02510115  RH  043%=      5-min Rain = 0
KEA1 080410Z 14009KT 25/12 A3007 RMK A01 T02500115  RH  043%=      5-min Rain = 0
KEA1 080411Z 14009KT 25/12 A3007 RMK A01 T02500115  RH  043%=      5-min Rain = 0
KEA1 080412Z 14009KT 25/12 A3007 RMK A01 T02490115  RH  043%=      5-min Rain = 0
KEA1 080413Z 14009KT 25/12 A3007 RMK A01 T02490115  RH  043%=      5-min Rain = 0
KEA1 080414Z 14009KT 25/12 A3007 RMK A01 T02490115  RH  043%=      5-min Rain = 0
KEA1 080415Z 14009KT 25/12 A3007 RMK A01 T02480115  RH  043%=      5-min Rain = 0
KEA1 080416Z 14009KT 25/12 A3007 RMK A01 T02480115  RH  043%=      5-min Rain = 0
KEA1 080417Z 14009KT 25/12 A3007 RMK A01 T02480115  RH  043%=      5-min Rain = 0
KEA1 080418Z 14010KT 25/12 A3007 RMK A01 T02480115  RH  043%=      5-min Rain = 0
KEA1 080419Z 14009KT 25/12 A3007 RMK A01 T02470115  RH  044%=      5-min Rain = 0
KEA1 080420Z 14009KT 25/12 A3007 RMK A01 T02470115  RH  044%=      5-min Rain = 0
KEA1 080421Z 14009KT 25/12 A3007 RMK A01 T02460115  RH  044%=      5-min Rain = 0
KEA1 080422Z 14009KT 25/12 A3007 RMK A01 T02470115  RH  044%=      5-min Rain = 0
KEA1 080423Z 14009KT 25/11 A3007 RMK A01 T02460114  RH  044%=      5-min Rain = 0
KEA1 080424Z 14009KT 25/12 A3007 RMK A01 T02470115  RH  044%=      5-min Rain = 0
KEA1 080425Z 14009KT 25/12 A3007 RMK A01 T02460115  RH  044%=      5-min Rain = 0
KEA1 080426Z 15009KT 25/11 A3007 RMK A01 T02460114  RH  044%=      5-min Rain = 0
KEA1 080427Z 14009KT 25/12 A3007 RMK A01 T02460115  RH  044%=      5-min Rain = 0
KEA1 080428Z 14009KT 25/11 A3007 RMK A01 T02460114  RH  044%=      5-min Rain = 0
KEA1 080429Z 14009KT 25/12 A3007 RMK A01 T02460115  RH  044%=      5-min Rain = 0
KEA1 080430Z 15009KT 25/12 A3007 RMK A01 T02460115  RH  044%=      5-min Rain = 0
KEA1 080431Z 15008KT 25/12 A3007 RMK A01 T02460115  RH  044%=      5-min Rain = 0
KEA1 080432Z 15009KT 25/11 A3007 RMK A01 T02450114  RH  044%=      5-min Rain = 0
KEA1 080433Z 14009KT 25/11 A3007 RMK A01 T02450114  RH  044%=      5-min Rain = 0
KEA1 080434Z 14009KT 25/11 A3007 RMK A01 T02450114  RH  044%=      5-min Rain = 0
KEA1 080435Z 15009KT 25/11 A3007 RMK A01 T02450114  RH  044%=      5-min Rain = 0
KEA1 080436Z 14009KT 25/11 A3007 RMK A01 T02450114  RH  044%=      5-min Rain = 0
KEA1 080437Z 14009KT 25/11 A3007 RMK A01 T02450114  RH  044%=      5-min Rain = 0
KEA1 080438Z 14009KT 25/11 A3007 RMK A01 T02450114  RH  044%=      5-min Rain = 0
KEA1 080439Z 15009KT 24/11 A3007 RMK A01 T02440114  RH  044%=      5-min Rain = 0
KEA1 080440Z 15008KT 24/11 A3007 RMK A01 T02440114  RH  044%=      5-min Rain = 0
KEA1 080441Z 15009KT 24/11 A3007 RMK A01 T02440114  RH  044%=      5-min Rain = 0
KEA1 080442Z 15008KT 24/11 A3007 RMK A01 T02440114  RH  044%=      5-min Rain = 0
KEA1 080443Z 15008KT 24/11 A3007 RMK A01 T02430114  RH  044%=      5-min Rain = 0
KEA1 080444Z 15009KT 24/11 A3007 RMK A01 T02430114  RH  044%=      5-min Rain = 0
KEA1 080445Z 15009KT 24/11 A3007 RMK A01 T02420114  RH  044%=      5-min Rain = 0
KEA1 080446Z 15009KT 24/11 A3007 RMK A01 T02420114  RH  044%=      5-min Rain = 0
KEA1 080447Z 15009KT 24/11 A3007 RMK A01 T02420114  RH  045%=      5-min Rain = 0
KEA1 080448Z 15009KT 24/11 A3007 RMK A01 T02410113  RH  045%=      5-min Rain = 0
KEA1 080449Z 15009KT 24/11 A3007 RMK A01 T02420113  RH  045%=      5-min Rain = 0
KEA1 080450Z 15009KT 24/11 A3007 RMK A01 T02420113  RH  044%=      5-min Rain = 0
KEA1 080451Z 15009KT 24/11 A3007 RMK A01 T02420113  RH  044%=      5-min Rain = 0
KEA1 080452Z 15009KT 24/11 A3007 RMK A01 T02420113  RH  044%=      5-min Rain = 0
KEA1 080453Z 15009KT 24/11 A3007 RMK A01 T02420113  RH  044%=      5-min Rain = 0
KEA1 080454Z 15010KT 24/11 A3007 RMK A01 T02420112  RH  044%=      5-min Rain = 0
KEA1 080455Z 15009KT 24/11 A3007 RMK A01 T02430112  RH  044%=      5-min Rain = 0
KEA1 080456Z 15009KT 24/11 A3007 RMK A01 T02430112  RH  044%=      5-min Rain = 0
KEA1 080457Z 15010KT 24/11 A3007 RMK A01 T02440112  RH  044%=      5-min Rain = 0
KEA1 080458Z 15010KT 24/11 A3007 RMK A01 T02440112  RH  043%=      5-min Rain = 0
KEA1 080459Z 15009KT 25/11 A3007 RMK A01 T02450112  RH  043%=      5-min Rain = 0

Page generated in 0.0804 seconds.